<?xml version="1.0" encoding="UTF-8"?>
<gpx xmlns="http://www.topografix.com/GPX/1/1" xmlns:gpsies="http://www.gpsies.com/GPX/1/0" creator="GPSies http://www.gpsies.com - 2011-05-01AufDemKammDesVogler" version="1.1" xmlns:xsi="http://www.w3.org/2001/XMLSchema-instance" xsi:schemaLocation="http://www.topografix.com/GPX/1/1 http://www.topografix.com/GPX/1/1/gpx.xsd http://www.gpsies.com/GPX/1/0 http://www.gpsies.com/gpsies.xsd">
  <metadata>
    <name>2011-05-01AufDemKammDesVogler</name>
    <link href="http://www.gpsies.com/map.do?fileId=mnpitdnpseuhyfci">
      <text>2011-05-01AufDemKammDesVogler on GPSies.com</text>
    </link>
    <time>2012-03-08T17:52:15Z</time>
    <extensions>
      <gpsies:property>round trip</gpsies:property>
      <gpsies:trackLengthMeter>11648.560050268401</gpsies:trackLengthMeter>
      <gpsies:totalAscentMeter>351.84</gpsies:totalAscentMeter>
      <gpsies:totalDescentMeter>335.5</gpsies:totalDescentMeter>
      <gpsies:minHeightMeter>73.68</gpsies:minHeightMeter>
      <gpsies:maxHeightMeter>408.7</gpsies:maxHeightMeter>
    </extensions>
  </metadata>
  <trk>
    <name>2011-05-01AufDemKammDesVogler on GPSies.com</name>
    <link href="http://www.gpsies.com/map.do?fileId=mnpitdnpseuhyfci" />
    <trkseg>
      <trkpt lat="51.97685200" lon="9.549029000">
        <ele>73.680000</ele>
        <time>2012-03-08T17:52:15Z</time>
      </trkpt>
      <trkpt lat="51.97685600" lon="9.549031000">
        <ele>76.560000</ele>
        <time>2012-03-08T17:52:15Z</time>
      </trkpt>
      <trkpt lat="51.97686400" lon="9.549027000">
        <ele>80.890000</ele>
        <time>2012-03-08T17:52:16Z</time>
      </trkpt>
      <trkpt lat="51.97686000" lon="9.549016000">
        <ele>83.770000</ele>
        <time>2012-03-08T17:52:16Z</time>
      </trkpt>
      <trkpt lat="51.97685600" lon="9.549007000">
        <ele>86.660000</ele>
        <time>2012-03-08T17:52:16Z</time>
      </trkpt>
      <trkpt lat="51.97684500" lon="9.549008000">
        <ele>90.020000</ele>
        <time>2012-03-08T17:52:17Z</time>
      </trkpt>
      <trkpt lat="51.97683700" lon="9.548993000">
        <ele>92.900000</ele>
        <time>2012-03-08T17:52:17Z</time>
      </trkpt>
      <trkpt lat="51.97683700" lon="9.549023000">
        <ele>96.270000</ele>
        <time>2012-03-08T17:52:18Z</time>
      </trkpt>
      <trkpt lat="51.97678400" lon="9.548989000">
        <ele>96.270000</ele>
        <time>2012-03-08T17:52:20Z</time>
      </trkpt>
      <trkpt lat="51.97674200" lon="9.548880000">
        <ele>95.790000</ele>
        <time>2012-03-08T17:52:23Z</time>
      </trkpt>
      <trkpt lat="51.97676100" lon="9.548816000">
        <ele>95.790000</ele>
        <time>2012-03-08T17:52:25Z</time>
      </trkpt>
      <trkpt lat="51.97678400" lon="9.548674000">
        <ele>96.270000</ele>
        <time>2012-03-08T17:52:29Z</time>
      </trkpt>
      <trkpt lat="51.97687100" lon="9.548400000">
        <ele>95.310000</ele>
        <time>2012-03-08T17:52:36Z</time>
      </trkpt>
      <trkpt lat="51.97697100" lon="9.548092000">
        <ele>95.790000</ele>
        <time>2012-03-08T17:52:45Z</time>
      </trkpt>
      <trkpt lat="51.97702400" lon="9.547935000">
        <ele>95.790000</ele>
        <time>2012-03-08T17:52:49Z</time>
      </trkpt>
      <trkpt lat="51.97706200" lon="9.547819000">
        <ele>95.310000</ele>
        <time>2012-03-08T17:52:52Z</time>
      </trkpt>
      <trkpt lat="51.97714200" lon="9.547641000">
        <ele>94.830000</ele>
        <time>2012-03-08T17:52:58Z</time>
      </trkpt>
      <trkpt lat="51.97716900" lon="9.547554000">
        <ele>94.830000</ele>
        <time>2012-03-08T17:53:00Z</time>
      </trkpt>
      <trkpt lat="51.97721500" lon="9.547495000">
        <ele>95.310000</ele>
        <time>2012-03-08T17:53:03Z</time>
      </trkpt>
      <trkpt lat="51.97724500" lon="9.547441000">
        <ele>94.830000</ele>
        <time>2012-03-08T17:53:04Z</time>
      </trkpt>
      <trkpt lat="51.97732200" lon="9.547229000">
        <ele>94.830000</ele>
        <time>2012-03-08T17:53:11Z</time>
      </trkpt>
      <trkpt lat="51.97736700" lon="9.547114000">
        <ele>94.350000</ele>
        <time>2012-03-08T17:53:14Z</time>
      </trkpt>
      <trkpt lat="51.97734500" lon="9.546896000">
        <ele>95.790000</ele>
        <time>2012-03-08T17:53:19Z</time>
      </trkpt>
      <trkpt lat="51.97733300" lon="9.546833000">
        <ele>97.230000</ele>
        <time>2012-03-08T17:53:21Z</time>
      </trkpt>
      <trkpt lat="51.97731000" lon="9.546621000">
        <ele>99.630000</ele>
        <time>2012-03-08T17:53:26Z</time>
      </trkpt>
      <trkpt lat="51.97728300" lon="9.546583000">
        <ele>102.04000</ele>
        <time>2012-03-08T17:53:28Z</time>
      </trkpt>
      <trkpt lat="51.97726800" lon="9.546569000">
        <ele>103.96000</ele>
        <time>2012-03-08T17:53:28Z</time>
      </trkpt>
      <trkpt lat="51.97694800" lon="9.546292000">
        <ele>106.84000</ele>
        <time>2012-03-08T17:53:43Z</time>
      </trkpt>
      <trkpt lat="51.97680300" lon="9.546136000">
        <ele>107.32000</ele>
        <time>2012-03-08T17:53:50Z</time>
      </trkpt>
      <trkpt lat="51.97667700" lon="9.545916000">
        <ele>109.25000</ele>
        <time>2012-03-08T17:53:57Z</time>
      </trkpt>
      <trkpt lat="51.97666200" lon="9.545878000">
        <ele>110.21000</ele>
        <time>2012-03-08T17:53:58Z</time>
      </trkpt>
      <trkpt lat="51.97663500" lon="9.545669000">
        <ele>112.61000</ele>
        <time>2012-03-08T17:54:04Z</time>
      </trkpt>
      <trkpt lat="51.97657000" lon="9.545598000">
        <ele>114.05000</ele>
        <time>2012-03-08T17:54:07Z</time>
      </trkpt>
      <trkpt lat="51.97644800" lon="9.545500000">
        <ele>115.01000</ele>
        <time>2012-03-08T17:54:12Z</time>
      </trkpt>
      <trkpt lat="51.97641000" lon="9.545462000">
        <ele>115.50000</ele>
        <time>2012-03-08T17:54:14Z</time>
      </trkpt>
      <trkpt lat="51.97638300" lon="9.545441000">
        <ele>115.50000</ele>
        <time>2012-03-08T17:54:15Z</time>
      </trkpt>
      <trkpt lat="51.97623400" lon="9.545282000">
        <ele>119.82000</ele>
        <time>2012-03-08T17:54:22Z</time>
      </trkpt>
      <trkpt lat="51.97622300" lon="9.545270000">
        <ele>115.98000</ele>
        <time>2012-03-08T17:54:23Z</time>
      </trkpt>
      <trkpt lat="51.97619600" lon="9.545239000">
        <ele>116.94000</ele>
        <time>2012-03-08T17:54:24Z</time>
      </trkpt>
      <trkpt lat="51.97615100" lon="9.545186000">
        <ele>117.90000</ele>
        <time>2012-03-08T17:54:26Z</time>
      </trkpt>
      <trkpt lat="51.97609700" lon="9.545098000">
        <ele>119.82000</ele>
        <time>2012-03-08T17:54:29Z</time>
      </trkpt>
      <trkpt lat="51.97602800" lon="9.544879000">
        <ele>121.26000</ele>
        <time>2012-03-08T17:54:36Z</time>
      </trkpt>
      <trkpt lat="51.97595600" lon="9.544687000">
        <ele>123.19000</ele>
        <time>2012-03-08T17:54:41Z</time>
      </trkpt>
      <trkpt lat="51.97593700" lon="9.544635000">
        <ele>124.15000</ele>
        <time>2012-03-08T17:54:43Z</time>
      </trkpt>
      <trkpt lat="51.97588700" lon="9.544564000">
        <ele>124.63000</ele>
        <time>2012-03-08T17:54:45Z</time>
      </trkpt>
      <trkpt lat="51.97586400" lon="9.544530000">
        <ele>125.11000</ele>
        <time>2012-03-08T17:54:47Z</time>
      </trkpt>
      <trkpt lat="51.97578400" lon="9.544406000">
        <ele>127.51000</ele>
        <time>2012-03-08T17:54:51Z</time>
      </trkpt>
      <trkpt lat="51.97567000" lon="9.544229000">
        <ele>129.92000</ele>
        <time>2012-03-08T17:54:57Z</time>
      </trkpt>
      <trkpt lat="51.97557800" lon="9.544091000">
        <ele>132.80000</ele>
        <time>2012-03-08T17:55:02Z</time>
      </trkpt>
      <trkpt lat="51.97546400" lon="9.543911000">
        <ele>134.72000</ele>
        <time>2012-03-08T17:55:09Z</time>
      </trkpt>
      <trkpt lat="51.97533000" lon="9.543616000">
        <ele>137.61000</ele>
        <time>2012-03-08T17:55:18Z</time>
      </trkpt>
      <trkpt lat="51.97531100" lon="9.543586000">
        <ele>137.61000</ele>
        <time>2012-03-08T17:55:19Z</time>
      </trkpt>
      <trkpt lat="51.97522700" lon="9.543456000">
        <ele>139.53000</ele>
        <time>2012-03-08T17:55:23Z</time>
      </trkpt>
      <trkpt lat="51.97517400" lon="9.543280000">
        <ele>142.41000</ele>
        <time>2012-03-08T17:55:28Z</time>
      </trkpt>
      <trkpt lat="51.97517800" lon="9.543090000">
        <ele>144.34000</ele>
        <time>2012-03-08T17:55:33Z</time>
      </trkpt>
      <trkpt lat="51.97518900" lon="9.543041000">
        <ele>144.82000</ele>
        <time>2012-03-08T17:55:34Z</time>
      </trkpt>
      <trkpt lat="51.97524300" lon="9.542926000">
        <ele>147.22000</ele>
        <time>2012-03-08T17:55:38Z</time>
      </trkpt>
      <trkpt lat="51.97531100" lon="9.542721000">
        <ele>148.18000</ele>
        <time>2012-03-08T17:55:43Z</time>
      </trkpt>
      <trkpt lat="51.97532300" lon="9.542682000">
        <ele>148.66000</ele>
        <time>2012-03-08T17:55:45Z</time>
      </trkpt>
      <trkpt lat="51.97536100" lon="9.542595000">
        <ele>148.66000</ele>
        <time>2012-03-08T17:55:47Z</time>
      </trkpt>
      <trkpt lat="51.97536800" lon="9.542591000">
        <ele>149.14000</ele>
        <time>2012-03-08T17:55:47Z</time>
      </trkpt>
      <trkpt lat="51.97541800" lon="9.542416000">
        <ele>150.10000</ele>
        <time>2012-03-08T17:55:52Z</time>
      </trkpt>
      <trkpt lat="51.97547100" lon="9.542166000">
        <ele>150.10000</ele>
        <time>2012-03-08T17:55:59Z</time>
      </trkpt>
      <trkpt lat="51.97552900" lon="9.541894000">
        <ele>152.03000</ele>
        <time>2012-03-08T17:56:06Z</time>
      </trkpt>
      <trkpt lat="51.97554800" lon="9.541841000">
        <ele>152.51000</ele>
        <time>2012-03-08T17:56:07Z</time>
      </trkpt>
      <trkpt lat="51.97558200" lon="9.541887000">
        <ele>152.03000</ele>
        <time>2012-03-08T17:56:09Z</time>
      </trkpt>
      <trkpt lat="51.97563900" lon="9.541342000">
        <ele>152.99000</ele>
        <time>2012-03-08T17:56:23Z</time>
      </trkpt>
      <trkpt lat="51.97570400" lon="9.541118000">
        <ele>154.91000</ele>
        <time>2012-03-08T17:56:29Z</time>
      </trkpt>
      <trkpt lat="51.97575000" lon="9.540989000">
        <ele>155.87000</ele>
        <time>2012-03-08T17:56:33Z</time>
      </trkpt>
      <trkpt lat="51.97582600" lon="9.540816000">
        <ele>157.31000</ele>
        <time>2012-03-08T17:56:38Z</time>
      </trkpt>
      <trkpt lat="51.97590600" lon="9.540531000">
        <ele>158.75000</ele>
        <time>2012-03-08T17:56:46Z</time>
      </trkpt>
      <trkpt lat="51.97597100" lon="9.540340000">
        <ele>160.68000</ele>
        <time>2012-03-08T17:56:51Z</time>
      </trkpt>
      <trkpt lat="51.97601700" lon="9.540247000">
        <ele>161.16000</ele>
        <time>2012-03-08T17:56:54Z</time>
      </trkpt>
      <trkpt lat="51.97611600" lon="9.539977000">
        <ele>162.12000</ele>
        <time>2012-03-08T17:57:02Z</time>
      </trkpt>
      <trkpt lat="51.97620800" lon="9.539759000">
        <ele>162.12000</ele>
        <time>2012-03-08T17:57:08Z</time>
      </trkpt>
      <trkpt lat="51.97620800" lon="9.539748000">
        <ele>162.60000</ele>
        <time>2012-03-08T17:57:08Z</time>
      </trkpt>
      <trkpt lat="51.97624600" lon="9.539749000">
        <ele>162.60000</ele>
        <time>2012-03-08T17:57:10Z</time>
      </trkpt>
      <trkpt lat="51.97624600" lon="9.539744000">
        <ele>162.60000</ele>
        <time>2012-03-08T17:57:10Z</time>
      </trkpt>
      <trkpt lat="51.97624600" lon="9.539637000">
        <ele>165.00000</ele>
        <time>2012-03-08T17:57:13Z</time>
      </trkpt>
      <trkpt lat="51.97618900" lon="9.539423000">
        <ele>166.93000</ele>
        <time>2012-03-08T17:57:18Z</time>
      </trkpt>
      <trkpt lat="51.97616600" lon="9.539227000">
        <ele>170.29000</ele>
        <time>2012-03-08T17:57:23Z</time>
      </trkpt>
      <trkpt lat="51.97607400" lon="9.539140000">
        <ele>172.21000</ele>
        <time>2012-03-08T17:57:28Z</time>
      </trkpt>
      <trkpt lat="51.97583000" lon="9.539135000">
        <ele>174.62000</ele>
        <time>2012-03-08T17:57:37Z</time>
      </trkpt>
      <trkpt lat="51.97568100" lon="9.539381000">
        <ele>176.06000</ele>
        <time>2012-03-08T17:57:46Z</time>
      </trkpt>
      <trkpt lat="51.97556700" lon="9.539486000">
        <ele>176.54000</ele>
        <time>2012-03-08T17:57:51Z</time>
      </trkpt>
      <trkpt lat="51.97544100" lon="9.539634000">
        <ele>176.54000</ele>
        <time>2012-03-08T17:57:57Z</time>
      </trkpt>
      <trkpt lat="51.97530400" lon="9.539769000">
        <ele>177.50000</ele>
        <time>2012-03-08T17:58:04Z</time>
      </trkpt>
      <trkpt lat="51.97509400" lon="9.540054000">
        <ele>178.46000</ele>
        <time>2012-03-08T17:58:15Z</time>
      </trkpt>
      <trkpt lat="51.97496400" lon="9.540175000">
        <ele>178.46000</ele>
        <time>2012-03-08T17:58:21Z</time>
      </trkpt>
      <trkpt lat="51.97485000" lon="9.540280000">
        <ele>178.46000</ele>
        <time>2012-03-08T17:58:26Z</time>
      </trkpt>
      <trkpt lat="51.97480800" lon="9.540343000">
        <ele>178.94000</ele>
        <time>2012-03-08T17:58:28Z</time>
      </trkpt>
      <trkpt lat="51.97460600" lon="9.540482000">
        <ele>180.38000</ele>
        <time>2012-03-08T17:58:37Z</time>
      </trkpt>
      <trkpt lat="51.97451000" lon="9.540528000">
        <ele>180.87000</ele>
        <time>2012-03-08T17:58:41Z</time>
      </trkpt>
      <trkpt lat="51.97431600" lon="9.540643000">
        <ele>182.31000</ele>
        <time>2012-03-08T17:58:49Z</time>
      </trkpt>
      <trkpt lat="51.97415200" lon="9.540738000">
        <ele>183.27000</ele>
        <time>2012-03-08T17:58:56Z</time>
      </trkpt>
      <trkpt lat="51.97395700" lon="9.540792000">
        <ele>183.27000</ele>
        <time>2012-03-08T17:59:04Z</time>
      </trkpt>
      <trkpt lat="51.97380100" lon="9.540850000">
        <ele>184.23000</ele>
        <time>2012-03-08T17:59:11Z</time>
      </trkpt>
      <trkpt lat="51.97351800" lon="9.540939000">
        <ele>186.15000</ele>
        <time>2012-03-08T17:59:22Z</time>
      </trkpt>
      <trkpt lat="51.97331600" lon="9.540950000">
        <ele>186.63000</ele>
        <time>2012-03-08T17:59:30Z</time>
      </trkpt>
      <trkpt lat="51.97320600" lon="9.540982000">
        <ele>188.56000</ele>
        <time>2012-03-08T17:59:35Z</time>
      </trkpt>
      <trkpt lat="51.97296100" lon="9.540986000">
        <ele>190.00000</ele>
        <time>2012-03-08T17:59:45Z</time>
      </trkpt>
      <trkpt lat="51.97282400" lon="9.541018000">
        <ele>191.44000</ele>
        <time>2012-03-08T17:59:50Z</time>
      </trkpt>
      <trkpt lat="51.97277800" lon="9.541038000">
        <ele>191.92000</ele>
        <time>2012-03-08T17:59:52Z</time>
      </trkpt>
      <trkpt lat="51.97259900" lon="9.541140000">
        <ele>193.84000</ele>
        <time>2012-03-08T18:00:00Z</time>
      </trkpt>
      <trkpt lat="51.97255300" lon="9.541183000">
        <ele>194.80000</ele>
        <time>2012-03-08T18:00:02Z</time>
      </trkpt>
      <trkpt lat="51.97238200" lon="9.541340000">
        <ele>196.73000</ele>
        <time>2012-03-08T18:00:10Z</time>
      </trkpt>
      <trkpt lat="51.97234700" lon="9.541384000">
        <ele>196.73000</ele>
        <time>2012-03-08T18:00:11Z</time>
      </trkpt>
      <trkpt lat="51.97224000" lon="9.541517000">
        <ele>198.17000</ele>
        <time>2012-03-08T18:00:17Z</time>
      </trkpt>
      <trkpt lat="51.97220600" lon="9.541538000">
        <ele>198.65000</ele>
        <time>2012-03-08T18:00:18Z</time>
      </trkpt>
      <trkpt lat="51.97206500" lon="9.541637000">
        <ele>200.09000</ele>
        <time>2012-03-08T18:00:24Z</time>
      </trkpt>
      <trkpt lat="51.97198500" lon="9.541693000">
        <ele>201.05000</ele>
        <time>2012-03-08T18:00:28Z</time>
      </trkpt>
      <trkpt lat="51.97190500" lon="9.541755000">
        <ele>201.05000</ele>
        <time>2012-03-08T18:00:31Z</time>
      </trkpt>
      <trkpt lat="51.97173700" lon="9.541871000">
        <ele>202.01000</ele>
        <time>2012-03-08T18:00:39Z</time>
      </trkpt>
      <trkpt lat="51.97172500" lon="9.541876000">
        <ele>202.49000</ele>
        <time>2012-03-08T18:00:39Z</time>
      </trkpt>
      <trkpt lat="51.97161900" lon="9.541903000">
        <ele>202.98000</ele>
        <time>2012-03-08T18:00:43Z</time>
      </trkpt>
      <trkpt lat="51.97153100" lon="9.541870000">
        <ele>203.94000</ele>
        <time>2012-03-08T18:00:47Z</time>
      </trkpt>
      <trkpt lat="51.97142800" lon="9.542065000">
        <ele>204.90000</ele>
        <time>2012-03-08T18:00:53Z</time>
      </trkpt>
      <trkpt lat="51.97141300" lon="9.542066000">
        <ele>204.90000</ele>
        <time>2012-03-08T18:00:54Z</time>
      </trkpt>
      <trkpt lat="51.97139400" lon="9.542068000">
        <ele>204.90000</ele>
        <time>2012-03-08T18:00:55Z</time>
      </trkpt>
      <trkpt lat="51.97132900" lon="9.542125000">
        <ele>204.90000</ele>
        <time>2012-03-08T18:00:58Z</time>
      </trkpt>
      <trkpt lat="51.97126800" lon="9.542175000">
        <ele>204.90000</ele>
        <time>2012-03-08T18:01:00Z</time>
      </trkpt>
      <trkpt lat="51.97110700" lon="9.542352000">
        <ele>203.94000</ele>
        <time>2012-03-08T18:01:08Z</time>
      </trkpt>
      <trkpt lat="51.97095100" lon="9.542609000">
        <ele>202.01000</ele>
        <time>2012-03-08T18:01:17Z</time>
      </trkpt>
      <trkpt lat="51.97084400" lon="9.542748000">
        <ele>201.05000</ele>
        <time>2012-03-08T18:01:23Z</time>
      </trkpt>
      <trkpt lat="51.97077200" lon="9.542825000">
        <ele>200.09000</ele>
        <time>2012-03-08T18:01:26Z</time>
      </trkpt>
      <trkpt lat="51.97065000" lon="9.542953000">
        <ele>197.69000</ele>
        <time>2012-03-08T18:01:32Z</time>
      </trkpt>
      <trkpt lat="51.97057300" lon="9.543066000">
        <ele>197.21000</ele>
        <time>2012-03-08T18:01:36Z</time>
      </trkpt>
      <trkpt lat="51.97044800" lon="9.543229000">
        <ele>196.25000</ele>
        <time>2012-03-08T18:01:42Z</time>
      </trkpt>
      <trkpt lat="51.97034500" lon="9.543353000">
        <ele>194.32000</ele>
        <time>2012-03-08T18:01:48Z</time>
      </trkpt>
      <trkpt lat="51.97021900" lon="9.543463000">
        <ele>193.84000</ele>
        <time>2012-03-08T18:01:53Z</time>
      </trkpt>
      <trkpt lat="51.97006200" lon="9.543635000">
        <ele>192.88000</ele>
        <time>2012-03-08T18:02:01Z</time>
      </trkpt>
      <trkpt lat="51.97004300" lon="9.543658000">
        <ele>190.48000</ele>
        <time>2012-03-08T18:02:02Z</time>
      </trkpt>
      <trkpt lat="51.96997500" lon="9.543688000">
        <ele>190.00000</ele>
        <time>2012-03-08T18:02:05Z</time>
      </trkpt>
      <trkpt lat="51.96980700" lon="9.543685000">
        <ele>190.00000</ele>
        <time>2012-03-08T18:02:11Z</time>
      </trkpt>
      <trkpt lat="51.96959700" lon="9.543721000">
        <ele>186.63000</ele>
        <time>2012-03-08T18:02:20Z</time>
      </trkpt>
      <trkpt lat="51.96958200" lon="9.543726000">
        <ele>192.40000</ele>
        <time>2012-03-08T18:02:20Z</time>
      </trkpt>
      <trkpt lat="51.96957000" lon="9.543733000">
        <ele>188.56000</ele>
        <time>2012-03-08T18:02:21Z</time>
      </trkpt>
      <trkpt lat="51.96936800" lon="9.543820000">
        <ele>187.59000</ele>
        <time>2012-03-08T18:02:29Z</time>
      </trkpt>
      <trkpt lat="51.96921200" lon="9.543971000">
        <ele>188.56000</ele>
        <time>2012-03-08T18:02:37Z</time>
      </trkpt>
      <trkpt lat="51.96922300" lon="9.543974000">
        <ele>188.56000</ele>
        <time>2012-03-08T18:02:37Z</time>
      </trkpt>
      <trkpt lat="51.96920000" lon="9.544024000">
        <ele>190.00000</ele>
        <time>2012-03-08T18:02:39Z</time>
      </trkpt>
      <trkpt lat="51.96917000" lon="9.544013000">
        <ele>188.08000</ele>
        <time>2012-03-08T18:02:40Z</time>
      </trkpt>
      <trkpt lat="51.96899000" lon="9.544037000">
        <ele>186.63000</ele>
        <time>2012-03-08T18:02:47Z</time>
      </trkpt>
      <trkpt lat="51.96882600" lon="9.544076000">
        <ele>185.67000</ele>
        <time>2012-03-08T18:02:54Z</time>
      </trkpt>
      <trkpt lat="51.96861600" lon="9.544064000">
        <ele>184.71000</ele>
        <time>2012-03-08T18:03:02Z</time>
      </trkpt>
      <trkpt lat="51.96847200" lon="9.544064000">
        <ele>183.75000</ele>
        <time>2012-03-08T18:03:08Z</time>
      </trkpt>
      <trkpt lat="51.96822000" lon="9.543895000">
        <ele>182.31000</ele>
        <time>2012-03-08T18:03:19Z</time>
      </trkpt>
      <trkpt lat="51.96817800" lon="9.543880000">
        <ele>182.31000</ele>
        <time>2012-03-08T18:03:21Z</time>
      </trkpt>
      <trkpt lat="51.96802500" lon="9.543839000">
        <ele>181.83000</ele>
        <time>2012-03-08T18:03:27Z</time>
      </trkpt>
      <trkpt lat="51.96781900" lon="9.543719000">
        <ele>181.83000</ele>
        <time>2012-03-08T18:03:35Z</time>
      </trkpt>
      <trkpt lat="51.96777000" lon="9.543700000">
        <ele>181.83000</ele>
        <time>2012-03-08T18:03:37Z</time>
      </trkpt>
      <trkpt lat="51.96757500" lon="9.543666000">
        <ele>181.83000</ele>
        <time>2012-03-08T18:03:45Z</time>
      </trkpt>
      <trkpt lat="51.96738100" lon="9.543591000">
        <ele>183.27000</ele>
        <time>2012-03-08T18:03:53Z</time>
      </trkpt>
      <trkpt lat="51.96723900" lon="9.543473000">
        <ele>183.27000</ele>
        <time>2012-03-08T18:04:00Z</time>
      </trkpt>
      <trkpt lat="51.96707900" lon="9.543312000">
        <ele>184.71000</ele>
        <time>2012-03-08T18:04:07Z</time>
      </trkpt>
      <trkpt lat="51.96696100" lon="9.543156000">
        <ele>185.67000</ele>
        <time>2012-03-08T18:04:13Z</time>
      </trkpt>
      <trkpt lat="51.96682700" lon="9.542991000">
        <ele>186.63000</ele>
        <time>2012-03-08T18:04:20Z</time>
      </trkpt>
      <trkpt lat="51.96672100" lon="9.542843000">
        <ele>187.11000</ele>
        <time>2012-03-08T18:04:26Z</time>
      </trkpt>
      <trkpt lat="51.96665600" lon="9.542803000">
        <ele>187.11000</ele>
        <time>2012-03-08T18:04:28Z</time>
      </trkpt>
      <trkpt lat="51.96646500" lon="9.542614000">
        <ele>187.59000</ele>
        <time>2012-03-08T18:04:37Z</time>
      </trkpt>
      <trkpt lat="51.96624400" lon="9.542444000">
        <ele>186.63000</ele>
        <time>2012-03-08T18:04:47Z</time>
      </trkpt>
      <trkpt lat="51.96611000" lon="9.542299000">
        <ele>187.11000</ele>
        <time>2012-03-08T18:04:54Z</time>
      </trkpt>
      <trkpt lat="51.96588500" lon="9.542089000">
        <ele>187.59000</ele>
        <time>2012-03-08T18:05:04Z</time>
      </trkpt>
      <trkpt lat="51.96571700" lon="9.541931000">
        <ele>188.56000</ele>
        <time>2012-03-08T18:05:12Z</time>
      </trkpt>
      <trkpt lat="51.96551900" lon="9.541761000">
        <ele>189.04000</ele>
        <time>2012-03-08T18:05:21Z</time>
      </trkpt>
      <trkpt lat="51.96550000" lon="9.541752000">
        <ele>189.04000</ele>
        <time>2012-03-08T18:05:22Z</time>
      </trkpt>
      <trkpt lat="51.96548100" lon="9.541738000">
        <ele>189.52000</ele>
        <time>2012-03-08T18:05:22Z</time>
      </trkpt>
      <trkpt lat="51.96533200" lon="9.541597000">
        <ele>189.52000</ele>
        <time>2012-03-08T18:05:29Z</time>
      </trkpt>
      <trkpt lat="51.96525200" lon="9.541524000">
        <ele>190.48000</ele>
        <time>2012-03-08T18:05:33Z</time>
      </trkpt>
      <trkpt lat="51.96517600" lon="9.541491000">
        <ele>190.48000</ele>
        <time>2012-03-08T18:05:36Z</time>
      </trkpt>
      <trkpt lat="51.96514100" lon="9.541474000">
        <ele>190.48000</ele>
        <time>2012-03-08T18:05:38Z</time>
      </trkpt>
      <trkpt lat="51.96495800" lon="9.541408000">
        <ele>190.96000</ele>
        <time>2012-03-08T18:05:45Z</time>
      </trkpt>
      <trkpt lat="51.96490900" lon="9.541380000">
        <ele>191.44000</ele>
        <time>2012-03-08T18:05:47Z</time>
      </trkpt>
      <trkpt lat="51.96487800" lon="9.541389000">
        <ele>192.40000</ele>
        <time>2012-03-08T18:05:48Z</time>
      </trkpt>
      <trkpt lat="51.96485500" lon="9.541324000">
        <ele>192.88000</ele>
        <time>2012-03-08T18:05:50Z</time>
      </trkpt>
      <trkpt lat="51.96463800" lon="9.541097000">
        <ele>196.73000</ele>
        <time>2012-03-08T18:06:01Z</time>
      </trkpt>
      <trkpt lat="51.96457700" lon="9.541050000">
        <ele>197.69000</ele>
        <time>2012-03-08T18:06:03Z</time>
      </trkpt>
      <trkpt lat="51.96443600" lon="9.541072000">
        <ele>199.61000</ele>
        <time>2012-03-08T18:06:09Z</time>
      </trkpt>
      <trkpt lat="51.96437100" lon="9.541030000">
        <ele>200.09000</ele>
        <time>2012-03-08T18:06:12Z</time>
      </trkpt>
      <trkpt lat="51.96429400" lon="9.541008000">
        <ele>202.01000</ele>
        <time>2012-03-08T18:06:15Z</time>
      </trkpt>
      <trkpt lat="51.96426800" lon="9.540989000">
        <ele>202.49000</ele>
        <time>2012-03-08T18:06:16Z</time>
      </trkpt>
      <trkpt lat="51.96426000" lon="9.540983000">
        <ele>205.38000</ele>
        <time>2012-03-08T18:06:16Z</time>
      </trkpt>
      <trkpt lat="51.96412300" lon="9.540881000">
        <ele>205.86000</ele>
        <time>2012-03-08T18:06:22Z</time>
      </trkpt>
      <trkpt lat="51.96390900" lon="9.540847000">
        <ele>207.30000</ele>
        <time>2012-03-08T18:06:31Z</time>
      </trkpt>
      <trkpt lat="51.96384800" lon="9.540809000">
        <ele>207.78000</ele>
        <time>2012-03-08T18:06:34Z</time>
      </trkpt>
      <trkpt lat="51.96365700" lon="9.540749000">
        <ele>209.70000</ele>
        <time>2012-03-08T18:06:41Z</time>
      </trkpt>
      <trkpt lat="51.96346700" lon="9.540649000">
        <ele>211.15000</ele>
        <time>2012-03-08T18:06:49Z</time>
      </trkpt>
      <trkpt lat="51.96305500" lon="9.540328000">
        <ele>212.59000</ele>
        <time>2012-03-08T18:07:08Z</time>
      </trkpt>
      <trkpt lat="51.96286000" lon="9.540192000">
        <ele>212.59000</ele>
        <time>2012-03-08T18:07:16Z</time>
      </trkpt>
      <trkpt lat="51.96277200" lon="9.540144000">
        <ele>213.07000</ele>
        <time>2012-03-08T18:07:20Z</time>
      </trkpt>
      <trkpt lat="51.96274600" lon="9.540133000">
        <ele>213.07000</ele>
        <time>2012-03-08T18:07:21Z</time>
      </trkpt>
      <trkpt lat="51.96242500" lon="9.539778000">
        <ele>214.03000</ele>
        <time>2012-03-08T18:07:37Z</time>
      </trkpt>
      <trkpt lat="51.96223800" lon="9.539625000">
        <ele>214.51000</ele>
        <time>2012-03-08T18:07:45Z</time>
      </trkpt>
      <trkpt lat="51.96213200" lon="9.539638000">
        <ele>214.03000</ele>
        <time>2012-03-08T18:07:49Z</time>
      </trkpt>
      <trkpt lat="51.96210900" lon="9.539628000">
        <ele>214.03000</ele>
        <time>2012-03-08T18:07:50Z</time>
      </trkpt>
      <trkpt lat="51.96203200" lon="9.539633000">
        <ele>214.99000</ele>
        <time>2012-03-08T18:07:53Z</time>
      </trkpt>
      <trkpt lat="51.96200200" lon="9.539623000">
        <ele>215.95000</ele>
        <time>2012-03-08T18:07:54Z</time>
      </trkpt>
      <trkpt lat="51.96182600" lon="9.539672000">
        <ele>214.03000</ele>
        <time>2012-03-08T18:08:02Z</time>
      </trkpt>
      <trkpt lat="51.96176900" lon="9.539707000">
        <ele>214.99000</ele>
        <time>2012-03-08T18:08:04Z</time>
      </trkpt>
      <trkpt lat="51.96165500" lon="9.539792000">
        <ele>214.51000</ele>
        <time>2012-03-08T18:08:09Z</time>
      </trkpt>
      <trkpt lat="51.96152900" lon="9.540015000">
        <ele>215.47000</ele>
        <time>2012-03-08T18:08:17Z</time>
      </trkpt>
      <trkpt lat="51.96150200" lon="9.540081000">
        <ele>216.43000</ele>
        <time>2012-03-08T18:08:19Z</time>
      </trkpt>
      <trkpt lat="51.96138000" lon="9.540290000">
        <ele>217.88000</ele>
        <time>2012-03-08T18:08:26Z</time>
      </trkpt>
      <trkpt lat="51.96136500" lon="9.540319000">
        <ele>217.88000</ele>
        <time>2012-03-08T18:08:27Z</time>
      </trkpt>
      <trkpt lat="51.96133000" lon="9.540401000">
        <ele>217.40000</ele>
        <time>2012-03-08T18:08:29Z</time>
      </trkpt>
      <trkpt lat="51.96120500" lon="9.540517000">
        <ele>220.28000</ele>
        <time>2012-03-08T18:08:35Z</time>
      </trkpt>
      <trkpt lat="51.96115500" lon="9.540521000">
        <ele>221.72000</ele>
        <time>2012-03-08T18:08:37Z</time>
      </trkpt>
      <trkpt lat="51.96106700" lon="9.540543000">
        <ele>224.12000</ele>
        <time>2012-03-08T18:08:40Z</time>
      </trkpt>
      <trkpt lat="51.96099900" lon="9.540534000">
        <ele>225.57000</ele>
        <time>2012-03-08T18:08:43Z</time>
      </trkpt>
      <trkpt lat="51.96083100" lon="9.540569000">
        <ele>228.93000</ele>
        <time>2012-03-08T18:08:50Z</time>
      </trkpt>
      <trkpt lat="51.96063200" lon="9.540673000">
        <ele>228.45000</ele>
        <time>2012-03-08T18:08:58Z</time>
      </trkpt>
      <trkpt lat="51.96047200" lon="9.540823000">
        <ele>229.41000</ele>
        <time>2012-03-08T18:09:06Z</time>
      </trkpt>
      <trkpt lat="51.96023900" lon="9.541119000">
        <ele>229.41000</ele>
        <time>2012-03-08T18:09:17Z</time>
      </trkpt>
      <trkpt lat="51.96010200" lon="9.541211000">
        <ele>229.89000</ele>
        <time>2012-03-08T18:09:23Z</time>
      </trkpt>
      <trkpt lat="51.96001800" lon="9.541245000">
        <ele>231.81000</ele>
        <time>2012-03-08T18:09:27Z</time>
      </trkpt>
      <trkpt lat="51.95993800" lon="9.541288000">
        <ele>233.26000</ele>
        <time>2012-03-08T18:09:30Z</time>
      </trkpt>
      <trkpt lat="51.95983100" lon="9.541401000">
        <ele>234.22000</ele>
        <time>2012-03-08T18:09:35Z</time>
      </trkpt>
      <trkpt lat="51.95977000" lon="9.541483000">
        <ele>235.18000</ele>
        <time>2012-03-08T18:09:39Z</time>
      </trkpt>
      <trkpt lat="51.95957600" lon="9.541657000">
        <ele>235.66000</ele>
        <time>2012-03-08T18:09:47Z</time>
      </trkpt>
      <trkpt lat="51.95940800" lon="9.541740000">
        <ele>237.10000</ele>
        <time>2012-03-08T18:09:54Z</time>
      </trkpt>
      <trkpt lat="51.95920200" lon="9.541799000">
        <ele>238.06000</ele>
        <time>2012-03-08T18:10:03Z</time>
      </trkpt>
      <trkpt lat="51.95914800" lon="9.541746000">
        <ele>240.47000</ele>
        <time>2012-03-08T18:10:05Z</time>
      </trkpt>
      <trkpt lat="51.95914100" lon="9.541781000">
        <ele>242.39000</ele>
        <time>2012-03-08T18:10:06Z</time>
      </trkpt>
      <trkpt lat="51.95906400" lon="9.541941000">
        <ele>243.83000</ele>
        <time>2012-03-08T18:10:11Z</time>
      </trkpt>
      <trkpt lat="51.95901100" lon="9.542059000">
        <ele>244.79000</ele>
        <time>2012-03-08T18:10:15Z</time>
      </trkpt>
      <trkpt lat="51.95891600" lon="9.542324000">
        <ele>246.23000</ele>
        <time>2012-03-08T18:10:22Z</time>
      </trkpt>
      <trkpt lat="51.95871700" lon="9.542842000">
        <ele>247.20000</ele>
        <time>2012-03-08T18:10:37Z</time>
      </trkpt>
      <trkpt lat="51.95863300" lon="9.543015000">
        <ele>249.60000</ele>
        <time>2012-03-08T18:10:43Z</time>
      </trkpt>
      <trkpt lat="51.95849600" lon="9.543332000">
        <ele>250.08000</ele>
        <time>2012-03-08T18:10:52Z</time>
      </trkpt>
      <trkpt lat="51.95835500" lon="9.543606000">
        <ele>252.00000</ele>
        <time>2012-03-08T18:11:01Z</time>
      </trkpt>
      <trkpt lat="51.95807600" lon="9.544156000">
        <ele>253.93000</ele>
        <time>2012-03-08T18:11:19Z</time>
      </trkpt>
      <trkpt lat="51.95792400" lon="9.544308000">
        <ele>255.37000</ele>
        <time>2012-03-08T18:11:26Z</time>
      </trkpt>
      <trkpt lat="51.95776000" lon="9.544422000">
        <ele>257.29000</ele>
        <time>2012-03-08T18:11:33Z</time>
      </trkpt>
      <trkpt lat="51.95768400" lon="9.544477000">
        <ele>257.77000</ele>
        <time>2012-03-08T18:11:36Z</time>
      </trkpt>
      <trkpt lat="51.95746600" lon="9.544565000">
        <ele>259.69000</ele>
        <time>2012-03-08T18:11:45Z</time>
      </trkpt>
      <trkpt lat="51.95738200" lon="9.544659000">
        <ele>258.73000</ele>
        <time>2012-03-08T18:11:50Z</time>
      </trkpt>
      <trkpt lat="51.95734400" lon="9.544668000">
        <ele>258.73000</ele>
        <time>2012-03-08T18:11:51Z</time>
      </trkpt>
      <trkpt lat="51.95733600" lon="9.544693000">
        <ele>259.21000</ele>
        <time>2012-03-08T18:11:52Z</time>
      </trkpt>
      <trkpt lat="51.95732500" lon="9.544669000">
        <ele>259.69000</ele>
        <time>2012-03-08T18:11:52Z</time>
      </trkpt>
      <trkpt lat="51.95728300" lon="9.544605000">
        <ele>259.21000</ele>
        <time>2012-03-08T18:11:55Z</time>
      </trkpt>
      <trkpt lat="51.95724100" lon="9.544685000">
        <ele>259.21000</ele>
        <time>2012-03-08T18:11:57Z</time>
      </trkpt>
      <trkpt lat="51.95711500" lon="9.544708000">
        <ele>260.65000</ele>
        <time>2012-03-08T18:12:02Z</time>
      </trkpt>
      <trkpt lat="51.95703100" lon="9.544664000">
        <ele>263.06000</ele>
        <time>2012-03-08T18:12:06Z</time>
      </trkpt>
      <trkpt lat="51.95699700" lon="9.544651000">
        <ele>264.50000</ele>
        <time>2012-03-08T18:12:07Z</time>
      </trkpt>
      <trkpt lat="51.95687100" lon="9.544608000">
        <ele>266.90000</ele>
        <time>2012-03-08T18:12:13Z</time>
      </trkpt>
      <trkpt lat="51.95677200" lon="9.544559000">
        <ele>268.83000</ele>
        <time>2012-03-08T18:12:17Z</time>
      </trkpt>
      <trkpt lat="51.95675700" lon="9.544563000">
        <ele>269.79000</ele>
        <time>2012-03-08T18:12:17Z</time>
      </trkpt>
      <trkpt lat="51.95661500" lon="9.544497000">
        <ele>271.23000</ele>
        <time>2012-03-08T18:12:23Z</time>
      </trkpt>
      <trkpt lat="51.95656600" lon="9.544492000">
        <ele>272.19000</ele>
        <time>2012-03-08T18:12:25Z</time>
      </trkpt>
      <trkpt lat="51.95653900" lon="9.544492000">
        <ele>275.07000</ele>
        <time>2012-03-08T18:12:26Z</time>
      </trkpt>
      <trkpt lat="51.95642900" lon="9.544376000">
        <ele>278.44000</ele>
        <time>2012-03-08T18:12:32Z</time>
      </trkpt>
      <trkpt lat="51.95618400" lon="9.544169000">
        <ele>281.32000</ele>
        <time>2012-03-08T18:12:43Z</time>
      </trkpt>
      <trkpt lat="51.95612000" lon="9.544085000">
        <ele>283.73000</ele>
        <time>2012-03-08T18:12:46Z</time>
      </trkpt>
      <trkpt lat="51.95608900" lon="9.544081000">
        <ele>286.13000</ele>
        <time>2012-03-08T18:12:47Z</time>
      </trkpt>
      <trkpt lat="51.95590200" lon="9.543880000">
        <ele>289.01000</ele>
        <time>2012-03-08T18:12:56Z</time>
      </trkpt>
      <trkpt lat="51.95580300" lon="9.543786000">
        <ele>291.90000</ele>
        <time>2012-03-08T18:13:01Z</time>
      </trkpt>
      <trkpt lat="51.95573800" lon="9.543719000">
        <ele>295.26000</ele>
        <time>2012-03-08T18:13:04Z</time>
      </trkpt>
      <trkpt lat="51.95573800" lon="9.543716000">
        <ele>298.63000</ele>
        <time>2012-03-08T18:13:04Z</time>
      </trkpt>
      <trkpt lat="51.95561600" lon="9.543722000">
        <ele>301.51000</ele>
        <time>2012-03-08T18:13:09Z</time>
      </trkpt>
      <trkpt lat="51.95545200" lon="9.543655000">
        <ele>307.76000</ele>
        <time>2012-03-08T18:13:16Z</time>
      </trkpt>
      <trkpt lat="51.95512000" lon="9.543610000">
        <ele>311.12000</ele>
        <time>2012-03-08T18:13:29Z</time>
      </trkpt>
      <trkpt lat="51.95480700" lon="9.543453000">
        <ele>313.05000</ele>
        <time>2012-03-08T18:13:42Z</time>
      </trkpt>
      <trkpt lat="51.95480700" lon="9.543443000">
        <ele>313.05000</ele>
        <time>2012-03-08T18:13:42Z</time>
      </trkpt>
      <trkpt lat="51.95472700" lon="9.543380000">
        <ele>314.01000</ele>
        <time>2012-03-08T18:13:46Z</time>
      </trkpt>
      <trkpt lat="51.95465100" lon="9.543342000">
        <ele>316.41000</ele>
        <time>2012-03-08T18:13:49Z</time>
      </trkpt>
      <trkpt lat="51.95464300" lon="9.543318000">
        <ele>316.41000</ele>
        <time>2012-03-08T18:13:50Z</time>
      </trkpt>
      <trkpt lat="51.95455200" lon="9.543261000">
        <ele>317.85000</ele>
        <time>2012-03-08T18:13:54Z</time>
      </trkpt>
      <trkpt lat="51.95439900" lon="9.543074000">
        <ele>319.78000</ele>
        <time>2012-03-08T18:14:01Z</time>
      </trkpt>
      <trkpt lat="51.95426600" lon="9.542811000">
        <ele>320.26000</ele>
        <time>2012-03-08T18:14:10Z</time>
      </trkpt>
      <trkpt lat="51.95415500" lon="9.542514000">
        <ele>321.70000</ele>
        <time>2012-03-08T18:14:18Z</time>
      </trkpt>
      <trkpt lat="51.95407500" lon="9.542274000">
        <ele>323.14000</ele>
        <time>2012-03-08T18:14:25Z</time>
      </trkpt>
      <trkpt lat="51.95406700" lon="9.542237000">
        <ele>324.58000</ele>
        <time>2012-03-08T18:14:26Z</time>
      </trkpt>
      <trkpt lat="51.95402100" lon="9.542099000">
        <ele>325.54000</ele>
        <time>2012-03-08T18:14:30Z</time>
      </trkpt>
      <trkpt lat="51.95395700" lon="9.541933000">
        <ele>326.50000</ele>
        <time>2012-03-08T18:14:35Z</time>
      </trkpt>
      <trkpt lat="51.95391100" lon="9.541826000">
        <ele>328.91000</ele>
        <time>2012-03-08T18:14:38Z</time>
      </trkpt>
      <trkpt lat="51.95389200" lon="9.541773000">
        <ele>328.91000</ele>
        <time>2012-03-08T18:14:39Z</time>
      </trkpt>
      <trkpt lat="51.95381200" lon="9.541469000">
        <ele>330.35000</ele>
        <time>2012-03-08T18:14:47Z</time>
      </trkpt>
      <trkpt lat="51.95374700" lon="9.541215000">
        <ele>330.35000</ele>
        <time>2012-03-08T18:14:54Z</time>
      </trkpt>
      <trkpt lat="51.95364400" lon="9.540918000">
        <ele>330.83000</ele>
        <time>2012-03-08T18:15:03Z</time>
      </trkpt>
      <trkpt lat="51.95359800" lon="9.540639000">
        <ele>331.79000</ele>
        <time>2012-03-08T18:15:10Z</time>
      </trkpt>
      <trkpt lat="51.95353700" lon="9.540412000">
        <ele>332.27000</ele>
        <time>2012-03-08T18:15:16Z</time>
      </trkpt>
      <trkpt lat="51.95349100" lon="9.540222000">
        <ele>333.23000</ele>
        <time>2012-03-08T18:15:21Z</time>
      </trkpt>
      <trkpt lat="51.95343800" lon="9.540132000">
        <ele>332.75000</ele>
        <time>2012-03-08T18:15:24Z</time>
      </trkpt>
      <trkpt lat="51.95326200" lon="9.540135000">
        <ele>332.27000</ele>
        <time>2012-03-08T18:15:31Z</time>
      </trkpt>
      <trkpt lat="51.95324300" lon="9.540171000">
        <ele>331.79000</ele>
        <time>2012-03-08T18:15:32Z</time>
      </trkpt>
      <trkpt lat="51.95321700" lon="9.540198000">
        <ele>332.27000</ele>
        <time>2012-03-08T18:15:33Z</time>
      </trkpt>
      <trkpt lat="51.95304500" lon="9.540301000">
        <ele>332.27000</ele>
        <time>2012-03-08T18:15:41Z</time>
      </trkpt>
      <trkpt lat="51.95295300" lon="9.540174000">
        <ele>332.75000</ele>
        <time>2012-03-08T18:15:46Z</time>
      </trkpt>
      <trkpt lat="51.95294200" lon="9.540146000">
        <ele>332.75000</ele>
        <time>2012-03-08T18:15:46Z</time>
      </trkpt>
      <trkpt lat="51.95284700" lon="9.539941000">
        <ele>331.79000</ele>
        <time>2012-03-08T18:15:53Z</time>
      </trkpt>
      <trkpt lat="51.95274000" lon="9.539728000">
        <ele>332.27000</ele>
        <time>2012-03-08T18:16:00Z</time>
      </trkpt>
      <trkpt lat="51.95265200" lon="9.539528000">
        <ele>332.27000</ele>
        <time>2012-03-08T18:16:06Z</time>
      </trkpt>
      <trkpt lat="51.95260200" lon="9.539442000">
        <ele>333.23000</ele>
        <time>2012-03-08T18:16:09Z</time>
      </trkpt>
      <trkpt lat="51.95252200" lon="9.539211000">
        <ele>335.64000</ele>
        <time>2012-03-08T18:16:15Z</time>
      </trkpt>
      <trkpt lat="51.95246900" lon="9.539076000">
        <ele>335.64000</ele>
        <time>2012-03-08T18:16:19Z</time>
      </trkpt>
      <trkpt lat="51.95237000" lon="9.538818000">
        <ele>336.60000</ele>
        <time>2012-03-08T18:16:26Z</time>
      </trkpt>
      <trkpt lat="51.95235400" lon="9.538774000">
        <ele>336.12000</ele>
        <time>2012-03-08T18:16:28Z</time>
      </trkpt>
      <trkpt lat="51.95229300" lon="9.538522000">
        <ele>337.56000</ele>
        <time>2012-03-08T18:16:34Z</time>
      </trkpt>
      <trkpt lat="51.95227100" lon="9.538441000">
        <ele>337.56000</ele>
        <time>2012-03-08T18:16:37Z</time>
      </trkpt>
      <trkpt lat="51.95217100" lon="9.538208000">
        <ele>339.48000</ele>
        <time>2012-03-08T18:16:44Z</time>
      </trkpt>
      <trkpt lat="51.95209100" lon="9.537997000">
        <ele>340.92000</ele>
        <time>2012-03-08T18:16:50Z</time>
      </trkpt>
      <trkpt lat="51.95201100" lon="9.537843000">
        <ele>342.85000</ele>
        <time>2012-03-08T18:16:55Z</time>
      </trkpt>
      <trkpt lat="51.95197700" lon="9.537790000">
        <ele>343.81000</ele>
        <time>2012-03-08T18:16:57Z</time>
      </trkpt>
      <trkpt lat="51.95190000" lon="9.537547000">
        <ele>344.29000</ele>
        <time>2012-03-08T18:17:03Z</time>
      </trkpt>
      <trkpt lat="51.95179400" lon="9.537278000">
        <ele>346.21000</ele>
        <time>2012-03-08T18:17:11Z</time>
      </trkpt>
      <trkpt lat="51.95168700" lon="9.536989000">
        <ele>348.13000</ele>
        <time>2012-03-08T18:17:20Z</time>
      </trkpt>
      <trkpt lat="51.95167500" lon="9.536940000">
        <ele>348.13000</ele>
        <time>2012-03-08T18:17:21Z</time>
      </trkpt>
      <trkpt lat="51.95166400" lon="9.536880000">
        <ele>348.13000</ele>
        <time>2012-03-08T18:17:22Z</time>
      </trkpt>
      <trkpt lat="51.95159500" lon="9.536602000">
        <ele>349.10000</ele>
        <time>2012-03-08T18:17:30Z</time>
      </trkpt>
      <trkpt lat="51.95158000" lon="9.536514000">
        <ele>349.10000</ele>
        <time>2012-03-08T18:17:32Z</time>
      </trkpt>
      <trkpt lat="51.95156900" lon="9.536446000">
        <ele>349.58000</ele>
        <time>2012-03-08T18:17:34Z</time>
      </trkpt>
      <trkpt lat="51.95156100" lon="9.536399000">
        <ele>350.06000</ele>
        <time>2012-03-08T18:17:35Z</time>
      </trkpt>
      <trkpt lat="51.95150000" lon="9.536072000">
        <ele>351.02000</ele>
        <time>2012-03-08T18:17:43Z</time>
      </trkpt>
      <trkpt lat="51.95128300" lon="9.535818000">
        <ele>351.98000</ele>
        <time>2012-03-08T18:17:54Z</time>
      </trkpt>
      <trkpt lat="51.95114100" lon="9.535682000">
        <ele>352.94000</ele>
        <time>2012-03-08T18:18:01Z</time>
      </trkpt>
      <trkpt lat="51.95105400" lon="9.535592000">
        <ele>353.42000</ele>
        <time>2012-03-08T18:18:05Z</time>
      </trkpt>
      <trkpt lat="51.95095800" lon="9.535442000">
        <ele>353.90000</ele>
        <time>2012-03-08T18:18:10Z</time>
      </trkpt>
      <trkpt lat="51.95084400" lon="9.535334000">
        <ele>354.38000</ele>
        <time>2012-03-08T18:18:15Z</time>
      </trkpt>
      <trkpt lat="51.95076800" lon="9.535258000">
        <ele>355.34000</ele>
        <time>2012-03-08T18:18:19Z</time>
      </trkpt>
      <trkpt lat="51.95072200" lon="9.535224000">
        <ele>355.83000</ele>
        <time>2012-03-08T18:18:21Z</time>
      </trkpt>
      <trkpt lat="51.95057300" lon="9.535096000">
        <ele>357.27000</ele>
        <time>2012-03-08T18:18:28Z</time>
      </trkpt>
      <trkpt lat="51.95047400" lon="9.535067000">
        <ele>359.19000</ele>
        <time>2012-03-08T18:18:32Z</time>
      </trkpt>
      <trkpt lat="51.95044300" lon="9.535056000">
        <ele>358.71000</ele>
        <time>2012-03-08T18:18:33Z</time>
      </trkpt>
      <trkpt lat="51.95016100" lon="9.534880000">
        <ele>358.71000</ele>
        <time>2012-03-08T18:18:45Z</time>
      </trkpt>
      <trkpt lat="51.94997400" lon="9.534812000">
        <ele>358.23000</ele>
        <time>2012-03-08T18:18:53Z</time>
      </trkpt>
      <trkpt lat="51.94982500" lon="9.534799000">
        <ele>357.27000</ele>
        <time>2012-03-08T18:18:59Z</time>
      </trkpt>
      <trkpt lat="51.94976400" lon="9.534766000">
        <ele>357.75000</ele>
        <time>2012-03-08T18:19:01Z</time>
      </trkpt>
      <trkpt lat="51.94957000" lon="9.534693000">
        <ele>357.75000</ele>
        <time>2012-03-08T18:19:09Z</time>
      </trkpt>
      <trkpt lat="51.94935200" lon="9.534616000">
        <ele>355.34000</ele>
        <time>2012-03-08T18:19:18Z</time>
      </trkpt>
      <trkpt lat="51.94921100" lon="9.534562000">
        <ele>354.86000</ele>
        <time>2012-03-08T18:19:24Z</time>
      </trkpt>
      <trkpt lat="51.94906600" lon="9.534460000">
        <ele>357.27000</ele>
        <time>2012-03-08T18:19:30Z</time>
      </trkpt>
      <trkpt lat="51.94904300" lon="9.534470000">
        <ele>360.15000</ele>
        <time>2012-03-08T18:19:31Z</time>
      </trkpt>
      <trkpt lat="51.94902400" lon="9.534437000">
        <ele>364.00000</ele>
        <time>2012-03-08T18:19:32Z</time>
      </trkpt>
      <trkpt lat="51.94877600" lon="9.534335000">
        <ele>365.44000</ele>
        <time>2012-03-08T18:19:43Z</time>
      </trkpt>
      <trkpt lat="51.94862400" lon="9.534229000">
        <ele>367.36000</ele>
        <time>2012-03-08T18:19:49Z</time>
      </trkpt>
      <trkpt lat="51.94850900" lon="9.534158000">
        <ele>367.84000</ele>
        <time>2012-03-08T18:19:54Z</time>
      </trkpt>
      <trkpt lat="51.94829600" lon="9.534029000">
        <ele>369.28000</ele>
        <time>2012-03-08T18:20:03Z</time>
      </trkpt>
      <trkpt lat="51.94814300" lon="9.533886000">
        <ele>369.76000</ele>
        <time>2012-03-08T18:20:10Z</time>
      </trkpt>
      <trkpt lat="51.94800900" lon="9.533789000">
        <ele>370.73000</ele>
        <time>2012-03-08T18:20:16Z</time>
      </trkpt>
      <trkpt lat="51.94791400" lon="9.533709000">
        <ele>371.69000</ele>
        <time>2012-03-08T18:20:21Z</time>
      </trkpt>
      <trkpt lat="51.94775000" lon="9.533566000">
        <ele>372.17000</ele>
        <time>2012-03-08T18:20:28Z</time>
      </trkpt>
      <trkpt lat="51.94770400" lon="9.533541000">
        <ele>372.65000</ele>
        <time>2012-03-08T18:20:30Z</time>
      </trkpt>
      <trkpt lat="51.94761700" lon="9.533499000">
        <ele>372.65000</ele>
        <time>2012-03-08T18:20:34Z</time>
      </trkpt>
      <trkpt lat="51.94759000" lon="9.533487000">
        <ele>372.65000</ele>
        <time>2012-03-08T18:20:35Z</time>
      </trkpt>
      <trkpt lat="51.94756300" lon="9.533477000">
        <ele>373.13000</ele>
        <time>2012-03-08T18:20:36Z</time>
      </trkpt>
      <trkpt lat="51.94747500" lon="9.533407000">
        <ele>373.13000</ele>
        <time>2012-03-08T18:20:40Z</time>
      </trkpt>
      <trkpt lat="51.94736500" lon="9.533329000">
        <ele>378.90000</ele>
        <time>2012-03-08T18:20:45Z</time>
      </trkpt>
      <trkpt lat="51.94735700" lon="9.533307000">
        <ele>387.07000</ele>
        <time>2012-03-08T18:20:45Z</time>
      </trkpt>
      <trkpt lat="51.94722000" lon="9.533066000">
        <ele>390.43000</ele>
        <time>2012-03-08T18:20:53Z</time>
      </trkpt>
      <trkpt lat="51.94707900" lon="9.532783000">
        <ele>391.39000</ele>
        <time>2012-03-08T18:21:02Z</time>
      </trkpt>
      <trkpt lat="51.94707100" lon="9.532761000">
        <ele>391.39000</ele>
        <time>2012-03-08T18:21:03Z</time>
      </trkpt>
      <trkpt lat="51.94703700" lon="9.532746000">
        <ele>401.01000</ele>
        <time>2012-03-08T18:21:04Z</time>
      </trkpt>
      <trkpt lat="51.94702500" lon="9.532701000">
        <ele>408.70000</ele>
        <time>2012-03-08T18:21:06Z</time>
      </trkpt>
      <trkpt lat="51.94702100" lon="9.532699000">
        <ele>408.22000</ele>
        <time>2012-03-08T18:21:06Z</time>
      </trkpt>
      <trkpt lat="51.94701400" lon="9.532681000">
        <ele>406.77000</ele>
        <time>2012-03-08T18:21:06Z</time>
      </trkpt>
      <trkpt lat="51.94700200" lon="9.532660000">
        <ele>405.81000</ele>
        <time>2012-03-08T18:21:07Z</time>
      </trkpt>
      <trkpt lat="51.94699900" lon="9.532637000">
        <ele>405.33000</ele>
        <time>2012-03-08T18:21:08Z</time>
      </trkpt>
      <trkpt lat="51.94698300" lon="9.532632000">
        <ele>404.37000</ele>
        <time>2012-03-08T18:21:08Z</time>
      </trkpt>
      <trkpt lat="51.94697600" lon="9.532620000">
        <ele>398.60000</ele>
        <time>2012-03-08T18:21:09Z</time>
      </trkpt>
      <trkpt lat="51.94697200" lon="9.532610000">
        <ele>384.18000</ele>
        <time>2012-03-08T18:21:09Z</time>
      </trkpt>
      <trkpt lat="51.94696800" lon="9.532594000">
        <ele>378.90000</ele>
        <time>2012-03-08T18:21:09Z</time>
      </trkpt>
      <trkpt lat="51.94692600" lon="9.532616000">
        <ele>380.82000</ele>
        <time>2012-03-08T18:21:11Z</time>
      </trkpt>
      <trkpt lat="51.94693400" lon="9.532676000">
        <ele>380.34000</ele>
        <time>2012-03-08T18:21:13Z</time>
      </trkpt>
      <trkpt lat="51.94691800" lon="9.532708000">
        <ele>376.97000</ele>
        <time>2012-03-08T18:21:14Z</time>
      </trkpt>
      <trkpt lat="51.94691800" lon="9.532700000">
        <ele>365.44000</ele>
        <time>2012-03-08T18:21:14Z</time>
      </trkpt>
      <trkpt lat="51.94693400" lon="9.532696000">
        <ele>360.15000</ele>
        <time>2012-03-08T18:21:14Z</time>
      </trkpt>
      <trkpt lat="51.94695300" lon="9.532688000">
        <ele>358.71000</ele>
        <time>2012-03-08T18:21:15Z</time>
      </trkpt>
      <trkpt lat="51.94715900" lon="9.532866000">
        <ele>357.27000</ele>
        <time>2012-03-08T18:21:25Z</time>
      </trkpt>
      <trkpt lat="51.94757800" lon="9.533312000">
        <ele>351.50000</ele>
        <time>2012-03-08T18:21:45Z</time>
      </trkpt>
      <trkpt lat="51.94768100" lon="9.533414000">
        <ele>349.58000</ele>
        <time>2012-03-08T18:21:49Z</time>
      </trkpt>
      <trkpt lat="51.94768900" lon="9.533425000">
        <ele>340.44000</ele>
        <time>2012-03-08T18:21:50Z</time>
      </trkpt>
      <trkpt lat="51.94770800" lon="9.533444000">
        <ele>339.00000</ele>
        <time>2012-03-08T18:21:51Z</time>
      </trkpt>
      <trkpt lat="51.94774600" lon="9.533466000">
        <ele>342.37000</ele>
        <time>2012-03-08T18:21:52Z</time>
      </trkpt>
      <trkpt lat="51.94952800" lon="9.534549000">
        <ele>340.92000</ele>
        <time>2012-03-08T18:23:09Z</time>
      </trkpt>
      <trkpt lat="51.94977200" lon="9.534674000">
        <ele>341.41000</ele>
        <time>2012-03-08T18:23:19Z</time>
      </trkpt>
      <trkpt lat="51.94980200" lon="9.534695000">
        <ele>341.89000</ele>
        <time>2012-03-08T18:23:20Z</time>
      </trkpt>
      <trkpt lat="51.94988600" lon="9.534718000">
        <ele>341.89000</ele>
        <time>2012-03-08T18:23:24Z</time>
      </trkpt>
      <trkpt lat="51.95006200" lon="9.534798000">
        <ele>342.37000</ele>
        <time>2012-03-08T18:23:31Z</time>
      </trkpt>
      <trkpt lat="51.95017200" lon="9.534859000">
        <ele>342.37000</ele>
        <time>2012-03-08T18:23:36Z</time>
      </trkpt>
      <trkpt lat="51.95034000" lon="9.534921000">
        <ele>342.37000</ele>
        <time>2012-03-08T18:23:42Z</time>
      </trkpt>
      <trkpt lat="51.95058800" lon="9.534860000">
        <ele>343.33000</ele>
        <time>2012-03-08T18:23:52Z</time>
      </trkpt>
      <trkpt lat="51.95077100" lon="9.534791000">
        <ele>345.25000</ele>
        <time>2012-03-08T18:24:00Z</time>
      </trkpt>
      <trkpt lat="51.95080900" lon="9.534760000">
        <ele>345.25000</ele>
        <time>2012-03-08T18:24:02Z</time>
      </trkpt>
      <trkpt lat="51.95096600" lon="9.534715000">
        <ele>346.69000</ele>
        <time>2012-03-08T18:24:08Z</time>
      </trkpt>
      <trkpt lat="51.95114900" lon="9.534675000">
        <ele>348.13000</ele>
        <time>2012-03-08T18:24:15Z</time>
      </trkpt>
      <trkpt lat="51.95124100" lon="9.534675000">
        <ele>349.58000</ele>
        <time>2012-03-08T18:24:19Z</time>
      </trkpt>
      <trkpt lat="51.95145800" lon="9.534783000">
        <ele>348.13000</ele>
        <time>2012-03-08T18:24:28Z</time>
      </trkpt>
      <trkpt lat="51.95162200" lon="9.534841000">
        <ele>347.65000</ele>
        <time>2012-03-08T18:24:35Z</time>
      </trkpt>
      <trkpt lat="51.95189700" lon="9.534826000">
        <ele>347.65000</ele>
        <time>2012-03-08T18:24:46Z</time>
      </trkpt>
      <trkpt lat="51.95192000" lon="9.534809000">
        <ele>347.65000</ele>
        <time>2012-03-08T18:24:47Z</time>
      </trkpt>
      <trkpt lat="51.95201900" lon="9.534764000">
        <ele>348.62000</ele>
        <time>2012-03-08T18:24:51Z</time>
      </trkpt>
      <trkpt lat="51.95211800" lon="9.534737000">
        <ele>347.65000</ele>
        <time>2012-03-08T18:24:55Z</time>
      </trkpt>
      <trkpt lat="51.95214100" lon="9.534718000">
        <ele>347.65000</ele>
        <time>2012-03-08T18:24:56Z</time>
      </trkpt>
      <trkpt lat="51.95230500" lon="9.534462000">
        <ele>347.17000</ele>
        <time>2012-03-08T18:25:05Z</time>
      </trkpt>
      <trkpt lat="51.95243800" lon="9.534506000">
        <ele>346.69000</ele>
        <time>2012-03-08T18:25:11Z</time>
      </trkpt>
      <trkpt lat="51.95255300" lon="9.534665000">
        <ele>346.69000</ele>
        <time>2012-03-08T18:25:17Z</time>
      </trkpt>
      <trkpt lat="51.95264800" lon="9.534842000">
        <ele>343.33000</ele>
        <time>2012-03-08T18:25:23Z</time>
      </trkpt>
      <trkpt lat="51.95273200" lon="9.534999000">
        <ele>339.96000</ele>
        <time>2012-03-08T18:25:28Z</time>
      </trkpt>
      <trkpt lat="51.95286200" lon="9.535211000">
        <ele>338.04000</ele>
        <time>2012-03-08T18:25:35Z</time>
      </trkpt>
      <trkpt lat="51.95304900" lon="9.535501000">
        <ele>336.60000</ele>
        <time>2012-03-08T18:25:45Z</time>
      </trkpt>
      <trkpt lat="51.95322000" lon="9.535734000">
        <ele>333.71000</ele>
        <time>2012-03-08T18:25:54Z</time>
      </trkpt>
      <trkpt lat="51.95337700" lon="9.535985000">
        <ele>332.27000</ele>
        <time>2012-03-08T18:26:03Z</time>
      </trkpt>
      <trkpt lat="51.95348400" lon="9.536173000">
        <ele>331.79000</ele>
        <time>2012-03-08T18:26:09Z</time>
      </trkpt>
      <trkpt lat="51.95393000" lon="9.536530000">
        <ele>330.83000</ele>
        <time>2012-03-08T18:26:29Z</time>
      </trkpt>
      <trkpt lat="51.95397600" lon="9.536560000">
        <ele>330.83000</ele>
        <time>2012-03-08T18:26:31Z</time>
      </trkpt>
      <trkpt lat="51.95411700" lon="9.536690000">
        <ele>331.79000</ele>
        <time>2012-03-08T18:26:38Z</time>
      </trkpt>
      <trkpt lat="51.95425400" lon="9.536766000">
        <ele>331.31000</ele>
        <time>2012-03-08T18:26:44Z</time>
      </trkpt>
      <trkpt lat="51.95443000" lon="9.536928000">
        <ele>330.83000</ele>
        <time>2012-03-08T18:26:52Z</time>
      </trkpt>
      <trkpt lat="51.95467400" lon="9.537013000">
        <ele>330.35000</ele>
        <time>2012-03-08T18:27:02Z</time>
      </trkpt>
      <trkpt lat="51.95476500" lon="9.537061000">
        <ele>330.35000</ele>
        <time>2012-03-08T18:27:06Z</time>
      </trkpt>
      <trkpt lat="51.95487200" lon="9.537127000">
        <ele>329.87000</ele>
        <time>2012-03-08T18:27:10Z</time>
      </trkpt>
      <trkpt lat="51.95505900" lon="9.537154000">
        <ele>329.39000</ele>
        <time>2012-03-08T18:27:18Z</time>
      </trkpt>
      <trkpt lat="51.95527300" lon="9.537189000">
        <ele>328.91000</ele>
        <time>2012-03-08T18:27:26Z</time>
      </trkpt>
      <trkpt lat="51.95550900" lon="9.537216000">
        <ele>327.95000</ele>
        <time>2012-03-08T18:27:36Z</time>
      </trkpt>
      <trkpt lat="51.95576900" lon="9.537237000">
        <ele>326.50000</ele>
        <time>2012-03-08T18:27:46Z</time>
      </trkpt>
      <trkpt lat="51.95595900" lon="9.537219000">
        <ele>326.02000</ele>
        <time>2012-03-08T18:27:54Z</time>
      </trkpt>
      <trkpt lat="51.95597100" lon="9.537215000">
        <ele>325.06000</ele>
        <time>2012-03-08T18:27:54Z</time>
      </trkpt>
      <trkpt lat="51.95599400" lon="9.537200000">
        <ele>325.06000</ele>
        <time>2012-03-08T18:27:55Z</time>
      </trkpt>
      <trkpt lat="51.95608900" lon="9.537139000">
        <ele>325.54000</ele>
        <time>2012-03-08T18:27:59Z</time>
      </trkpt>
      <trkpt lat="51.95632200" lon="9.537068000">
        <ele>326.02000</ele>
        <time>2012-03-08T18:28:09Z</time>
      </trkpt>
      <trkpt lat="51.95652400" lon="9.536957000">
        <ele>325.54000</ele>
        <time>2012-03-08T18:28:17Z</time>
      </trkpt>
      <trkpt lat="51.95664600" lon="9.536860000">
        <ele>325.06000</ele>
        <time>2012-03-08T18:28:23Z</time>
      </trkpt>
      <trkpt lat="51.95687500" lon="9.536733000">
        <ele>324.58000</ele>
        <time>2012-03-08T18:28:32Z</time>
      </trkpt>
      <trkpt lat="51.95706600" lon="9.536619000">
        <ele>324.58000</ele>
        <time>2012-03-08T18:28:41Z</time>
      </trkpt>
      <trkpt lat="51.95732100" lon="9.536510000">
        <ele>323.62000</ele>
        <time>2012-03-08T18:28:51Z</time>
      </trkpt>
      <trkpt lat="51.95751200" lon="9.536396000">
        <ele>324.58000</ele>
        <time>2012-03-08T18:28:59Z</time>
      </trkpt>
      <trkpt lat="51.95768700" lon="9.536220000">
        <ele>325.06000</ele>
        <time>2012-03-08T18:29:08Z</time>
      </trkpt>
      <trkpt lat="51.95776000" lon="9.536189000">
        <ele>324.58000</ele>
        <time>2012-03-08T18:29:11Z</time>
      </trkpt>
      <trkpt lat="51.95794700" lon="9.536031000">
        <ele>324.58000</ele>
        <time>2012-03-08T18:29:19Z</time>
      </trkpt>
      <trkpt lat="51.95800400" lon="9.536042000">
        <ele>320.26000</ele>
        <time>2012-03-08T18:29:21Z</time>
      </trkpt>
      <trkpt lat="51.95801900" lon="9.536007000">
        <ele>328.43000</ele>
        <time>2012-03-08T18:29:22Z</time>
      </trkpt>
      <trkpt lat="51.95812200" lon="9.535734000">
        <ele>324.58000</ele>
        <time>2012-03-08T18:29:30Z</time>
      </trkpt>
      <trkpt lat="51.95826000" lon="9.535543000">
        <ele>324.58000</ele>
        <time>2012-03-08T18:29:38Z</time>
      </trkpt>
      <trkpt lat="51.95843100" lon="9.535378000">
        <ele>324.10000</ele>
        <time>2012-03-08T18:29:46Z</time>
      </trkpt>
      <trkpt lat="51.95856500" lon="9.535232000">
        <ele>324.10000</ele>
        <time>2012-03-08T18:29:52Z</time>
      </trkpt>
      <trkpt lat="51.95863300" lon="9.535227000">
        <ele>323.62000</ele>
        <time>2012-03-08T18:29:55Z</time>
      </trkpt>
      <trkpt lat="51.95868700" lon="9.535174000">
        <ele>323.14000</ele>
        <time>2012-03-08T18:29:57Z</time>
      </trkpt>
      <trkpt lat="51.95873300" lon="9.535060000">
        <ele>323.14000</ele>
        <time>2012-03-08T18:30:01Z</time>
      </trkpt>
      <trkpt lat="51.95890800" lon="9.534872000">
        <ele>323.62000</ele>
        <time>2012-03-08T18:30:09Z</time>
      </trkpt>
      <trkpt lat="51.95893500" lon="9.534821000">
        <ele>323.62000</ele>
        <time>2012-03-08T18:30:11Z</time>
      </trkpt>
      <trkpt lat="51.95901500" lon="9.534731000">
        <ele>324.10000</ele>
        <time>2012-03-08T18:30:15Z</time>
      </trkpt>
      <trkpt lat="51.95918700" lon="9.534458000">
        <ele>324.10000</ele>
        <time>2012-03-08T18:30:24Z</time>
      </trkpt>
      <trkpt lat="51.95928200" lon="9.534334000">
        <ele>325.06000</ele>
        <time>2012-03-08T18:30:29Z</time>
      </trkpt>
      <trkpt lat="51.95939600" lon="9.534150000">
        <ele>326.02000</ele>
        <time>2012-03-08T18:30:35Z</time>
      </trkpt>
      <trkpt lat="51.95946500" lon="9.534087000">
        <ele>326.99000</ele>
        <time>2012-03-08T18:30:39Z</time>
      </trkpt>
      <trkpt lat="51.95951800" lon="9.534069000">
        <ele>327.47000</ele>
        <time>2012-03-08T18:30:41Z</time>
      </trkpt>
      <trkpt lat="51.95956000" lon="9.533984000">
        <ele>328.43000</ele>
        <time>2012-03-08T18:30:44Z</time>
      </trkpt>
      <trkpt lat="51.95961400" lon="9.533925000">
        <ele>328.91000</ele>
        <time>2012-03-08T18:30:46Z</time>
      </trkpt>
      <trkpt lat="51.95970200" lon="9.533751000">
        <ele>330.83000</ele>
        <time>2012-03-08T18:30:52Z</time>
      </trkpt>
      <trkpt lat="51.95975500" lon="9.533664000">
        <ele>332.27000</ele>
        <time>2012-03-08T18:30:55Z</time>
      </trkpt>
      <trkpt lat="51.95984300" lon="9.533620000">
        <ele>333.23000</ele>
        <time>2012-03-08T18:30:58Z</time>
      </trkpt>
      <trkpt lat="51.95985400" lon="9.533612000">
        <ele>334.20000</ele>
        <time>2012-03-08T18:30:59Z</time>
      </trkpt>
      <trkpt lat="51.95986600" lon="9.533606000">
        <ele>334.20000</ele>
        <time>2012-03-08T18:30:59Z</time>
      </trkpt>
      <trkpt lat="51.95999900" lon="9.533557000">
        <ele>334.68000</ele>
        <time>2012-03-08T18:31:05Z</time>
      </trkpt>
      <trkpt lat="51.96016300" lon="9.533483000">
        <ele>335.64000</ele>
        <time>2012-03-08T18:31:12Z</time>
      </trkpt>
      <trkpt lat="51.96036100" lon="9.533391000">
        <ele>336.60000</ele>
        <time>2012-03-08T18:31:20Z</time>
      </trkpt>
      <trkpt lat="51.96044900" lon="9.533349000">
        <ele>338.04000</ele>
        <time>2012-03-08T18:31:24Z</time>
      </trkpt>
      <trkpt lat="51.96057900" lon="9.533309000">
        <ele>337.56000</ele>
        <time>2012-03-08T18:31:29Z</time>
      </trkpt>
      <trkpt lat="51.96073500" lon="9.533257000">
        <ele>338.04000</ele>
        <time>2012-03-08T18:31:35Z</time>
      </trkpt>
      <trkpt lat="51.96085700" lon="9.533250000">
        <ele>338.04000</ele>
        <time>2012-03-08T18:31:40Z</time>
      </trkpt>
      <trkpt lat="51.96089600" lon="9.533225000">
        <ele>339.96000</ele>
        <time>2012-03-08T18:31:42Z</time>
      </trkpt>
      <trkpt lat="51.96104400" lon="9.533144000">
        <ele>339.96000</ele>
        <time>2012-03-08T18:31:48Z</time>
      </trkpt>
      <trkpt lat="51.96104400" lon="9.533143000">
        <ele>340.44000</ele>
        <time>2012-03-08T18:31:48Z</time>
      </trkpt>
      <trkpt lat="51.96104400" lon="9.533144000">
        <ele>339.96000</ele>
        <time>2012-03-08T18:31:48Z</time>
      </trkpt>
      <trkpt lat="51.96113200" lon="9.533229000">
        <ele>332.75000</ele>
        <time>2012-03-08T18:31:52Z</time>
      </trkpt>
      <trkpt lat="51.96113200" lon="9.533232000">
        <ele>339.96000</ele>
        <time>2012-03-08T18:31:52Z</time>
      </trkpt>
      <trkpt lat="51.96112800" lon="9.533202000">
        <ele>339.96000</ele>
        <time>2012-03-08T18:31:53Z</time>
      </trkpt>
      <trkpt lat="51.96112800" lon="9.533160000">
        <ele>340.44000</ele>
        <time>2012-03-08T18:31:54Z</time>
      </trkpt>
      <trkpt lat="51.96112800" lon="9.533179000">
        <ele>340.92000</ele>
        <time>2012-03-08T18:31:54Z</time>
      </trkpt>
      <trkpt lat="51.96108600" lon="9.533238000">
        <ele>340.92000</ele>
        <time>2012-03-08T18:31:57Z</time>
      </trkpt>
      <trkpt lat="51.96110200" lon="9.533218000">
        <ele>339.96000</ele>
        <time>2012-03-08T18:31:57Z</time>
      </trkpt>
      <trkpt lat="51.96107500" lon="9.533242000">
        <ele>339.96000</ele>
        <time>2012-03-08T18:31:59Z</time>
      </trkpt>
      <trkpt lat="51.96107900" lon="9.533242000">
        <ele>340.92000</ele>
        <time>2012-03-08T18:31:59Z</time>
      </trkpt>
      <trkpt lat="51.96111700" lon="9.533237000">
        <ele>339.96000</ele>
        <time>2012-03-08T18:32:00Z</time>
      </trkpt>
      <trkpt lat="51.96110900" lon="9.533246000">
        <ele>344.29000</ele>
        <time>2012-03-08T18:32:01Z</time>
      </trkpt>
      <trkpt lat="51.96110200" lon="9.533248000">
        <ele>339.00000</ele>
        <time>2012-03-08T18:32:01Z</time>
      </trkpt>
      <trkpt lat="51.96111300" lon="9.533278000">
        <ele>339.48000</ele>
        <time>2012-03-08T18:32:02Z</time>
      </trkpt>
      <trkpt lat="51.96132300" lon="9.533194000">
        <ele>341.41000</ele>
        <time>2012-03-08T18:32:11Z</time>
      </trkpt>
      <trkpt lat="51.96122700" lon="9.533176000">
        <ele>341.41000</ele>
        <time>2012-03-08T18:32:14Z</time>
      </trkpt>
      <trkpt lat="51.96136500" lon="9.533162000">
        <ele>342.37000</ele>
        <time>2012-03-08T18:32:20Z</time>
      </trkpt>
      <trkpt lat="51.96157500" lon="9.533122000">
        <ele>341.89000</ele>
        <time>2012-03-08T18:32:28Z</time>
      </trkpt>
      <trkpt lat="51.96170800" lon="9.533075000">
        <ele>341.41000</ele>
        <time>2012-03-08T18:32:34Z</time>
      </trkpt>
      <trkpt lat="51.96183800" lon="9.532934000">
        <ele>341.89000</ele>
        <time>2012-03-08T18:32:40Z</time>
      </trkpt>
      <trkpt lat="51.96186800" lon="9.532934000">
        <ele>341.41000</ele>
        <time>2012-03-08T18:32:41Z</time>
      </trkpt>
      <trkpt lat="51.96218100" lon="9.532804000">
        <ele>342.85000</ele>
        <time>2012-03-08T18:32:54Z</time>
      </trkpt>
      <trkpt lat="51.96228000" lon="9.532750000">
        <ele>342.37000</ele>
        <time>2012-03-08T18:32:59Z</time>
      </trkpt>
      <trkpt lat="51.96236800" lon="9.532688000">
        <ele>341.89000</ele>
        <time>2012-03-08T18:33:02Z</time>
      </trkpt>
      <trkpt lat="51.96250500" lon="9.532622000">
        <ele>342.37000</ele>
        <time>2012-03-08T18:33:08Z</time>
      </trkpt>
      <trkpt lat="51.96267300" lon="9.532592000">
        <ele>341.89000</ele>
        <time>2012-03-08T18:33:15Z</time>
      </trkpt>
      <trkpt lat="51.96289400" lon="9.532488000">
        <ele>339.96000</ele>
        <time>2012-03-08T18:33:24Z</time>
      </trkpt>
      <trkpt lat="51.96294000" lon="9.532437000">
        <ele>339.96000</ele>
        <time>2012-03-08T18:33:26Z</time>
      </trkpt>
      <trkpt lat="51.96301300" lon="9.532394000">
        <ele>337.56000</ele>
        <time>2012-03-08T18:33:29Z</time>
      </trkpt>
      <trkpt lat="51.96328400" lon="9.532283000">
        <ele>336.12000</ele>
        <time>2012-03-08T18:33:41Z</time>
      </trkpt>
      <trkpt lat="51.96342100" lon="9.532284000">
        <ele>334.20000</ele>
        <time>2012-03-08T18:33:46Z</time>
      </trkpt>
      <trkpt lat="51.96367300" lon="9.532275000">
        <ele>332.75000</ele>
        <time>2012-03-08T18:33:56Z</time>
      </trkpt>
      <trkpt lat="51.96379500" lon="9.532300000">
        <ele>331.31000</ele>
        <time>2012-03-08T18:34:01Z</time>
      </trkpt>
      <trkpt lat="51.96423700" lon="9.532347000">
        <ele>330.35000</ele>
        <time>2012-03-08T18:34:19Z</time>
      </trkpt>
      <trkpt lat="51.96453900" lon="9.532348000">
        <ele>329.87000</ele>
        <time>2012-03-08T18:34:31Z</time>
      </trkpt>
      <trkpt lat="51.96470600" lon="9.532310000">
        <ele>327.95000</ele>
        <time>2012-03-08T18:34:38Z</time>
      </trkpt>
      <trkpt lat="51.96488600" lon="9.532306000">
        <ele>326.50000</ele>
        <time>2012-03-08T18:34:45Z</time>
      </trkpt>
      <trkpt lat="51.96513000" lon="9.532404000">
        <ele>325.54000</ele>
        <time>2012-03-08T18:34:55Z</time>
      </trkpt>
      <trkpt lat="51.96537800" lon="9.532403000">
        <ele>323.62000</ele>
        <time>2012-03-08T18:35:05Z</time>
      </trkpt>
      <trkpt lat="51.96542400" lon="9.532478000">
        <ele>321.22000</ele>
        <time>2012-03-08T18:35:07Z</time>
      </trkpt>
      <trkpt lat="51.96549600" lon="9.532535000">
        <ele>319.78000</ele>
        <time>2012-03-08T18:35:11Z</time>
      </trkpt>
      <trkpt lat="51.96568700" lon="9.532534000">
        <ele>317.37000</ele>
        <time>2012-03-08T18:35:18Z</time>
      </trkpt>
      <trkpt lat="51.96594600" lon="9.532395000">
        <ele>315.93000</ele>
        <time>2012-03-08T18:35:29Z</time>
      </trkpt>
      <trkpt lat="51.96603400" lon="9.532334000">
        <ele>314.97000</ele>
        <time>2012-03-08T18:35:33Z</time>
      </trkpt>
      <trkpt lat="51.96603400" lon="9.532332000">
        <ele>312.57000</ele>
        <time>2012-03-08T18:35:33Z</time>
      </trkpt>
      <trkpt lat="51.96603400" lon="9.532330000">
        <ele>317.85000</ele>
        <time>2012-03-08T18:35:33Z</time>
      </trkpt>
      <trkpt lat="51.96603400" lon="9.532328000">
        <ele>314.01000</ele>
        <time>2012-03-08T18:35:33Z</time>
      </trkpt>
      <trkpt lat="51.96603400" lon="9.532334000">
        <ele>314.01000</ele>
        <time>2012-03-08T18:35:33Z</time>
      </trkpt>
      <trkpt lat="51.96608700" lon="9.532385000">
        <ele>313.05000</ele>
        <time>2012-03-08T18:35:36Z</time>
      </trkpt>
      <trkpt lat="51.96611400" lon="9.532296000">
        <ele>314.49000</ele>
        <time>2012-03-08T18:35:38Z</time>
      </trkpt>
      <trkpt lat="51.96604200" lon="9.532208000">
        <ele>314.49000</ele>
        <time>2012-03-08T18:35:42Z</time>
      </trkpt>
      <trkpt lat="51.96603800" lon="9.532207000">
        <ele>314.97000</ele>
        <time>2012-03-08T18:35:42Z</time>
      </trkpt>
      <trkpt lat="51.96608000" lon="9.532302000">
        <ele>314.01000</ele>
        <time>2012-03-08T18:35:45Z</time>
      </trkpt>
      <trkpt lat="51.96608700" lon="9.532251000">
        <ele>314.49000</ele>
        <time>2012-03-08T18:35:46Z</time>
      </trkpt>
      <trkpt lat="51.96593100" lon="9.532434000">
        <ele>316.41000</ele>
        <time>2012-03-08T18:35:54Z</time>
      </trkpt>
      <trkpt lat="51.96592700" lon="9.532537000">
        <ele>318.81000</ele>
        <time>2012-03-08T18:35:56Z</time>
      </trkpt>
      <trkpt lat="51.96592700" lon="9.532644000">
        <ele>321.70000</ele>
        <time>2012-03-08T18:35:59Z</time>
      </trkpt>
      <trkpt lat="51.96595400" lon="9.532705000">
        <ele>325.06000</ele>
        <time>2012-03-08T18:36:01Z</time>
      </trkpt>
      <trkpt lat="51.96610600" lon="9.532729000">
        <ele>325.06000</ele>
        <time>2012-03-08T18:36:07Z</time>
      </trkpt>
      <trkpt lat="51.96627400" lon="9.532742000">
        <ele>324.58000</ele>
        <time>2012-03-08T18:36:14Z</time>
      </trkpt>
      <trkpt lat="51.96648400" lon="9.532827000">
        <ele>322.66000</ele>
        <time>2012-03-08T18:36:22Z</time>
      </trkpt>
      <trkpt lat="51.96663700" lon="9.532916000">
        <ele>319.30000</ele>
        <time>2012-03-08T18:36:29Z</time>
      </trkpt>
      <trkpt lat="51.96674000" lon="9.533004000">
        <ele>316.89000</ele>
        <time>2012-03-08T18:36:33Z</time>
      </trkpt>
      <trkpt lat="51.96687300" lon="9.533104000">
        <ele>313.53000</ele>
        <time>2012-03-08T18:36:39Z</time>
      </trkpt>
      <trkpt lat="51.96701000" lon="9.533165000">
        <ele>310.64000</ele>
        <time>2012-03-08T18:36:45Z</time>
      </trkpt>
      <trkpt lat="51.96712500" lon="9.533265000">
        <ele>307.28000</ele>
        <time>2012-03-08T18:36:50Z</time>
      </trkpt>
      <trkpt lat="51.96715900" lon="9.533331000">
        <ele>305.84000</ele>
        <time>2012-03-08T18:36:52Z</time>
      </trkpt>
      <trkpt lat="51.96722400" lon="9.533482000">
        <ele>301.99000</ele>
        <time>2012-03-08T18:36:57Z</time>
      </trkpt>
      <trkpt lat="51.96723200" lon="9.533488000">
        <ele>301.03000</ele>
        <time>2012-03-08T18:36:57Z</time>
      </trkpt>
      <trkpt lat="51.96738100" lon="9.533543000">
        <ele>298.63000</ele>
        <time>2012-03-08T18:37:03Z</time>
      </trkpt>
      <trkpt lat="51.96764000" lon="9.533599000">
        <ele>295.74000</ele>
        <time>2012-03-08T18:37:14Z</time>
      </trkpt>
      <trkpt lat="51.96777700" lon="9.533625000">
        <ele>293.34000</ele>
        <time>2012-03-08T18:37:19Z</time>
      </trkpt>
      <trkpt lat="51.96797200" lon="9.533652000">
        <ele>291.42000</ele>
        <time>2012-03-08T18:37:27Z</time>
      </trkpt>
      <trkpt lat="51.96812100" lon="9.533714000">
        <ele>289.97000</ele>
        <time>2012-03-08T18:37:33Z</time>
      </trkpt>
      <trkpt lat="51.96830000" lon="9.533687000">
        <ele>289.97000</ele>
        <time>2012-03-08T18:37:41Z</time>
      </trkpt>
      <trkpt lat="51.96841400" lon="9.533669000">
        <ele>290.46000</ele>
        <time>2012-03-08T18:37:45Z</time>
      </trkpt>
      <trkpt lat="51.96854000" lon="9.533674000">
        <ele>290.94000</ele>
        <time>2012-03-08T18:37:50Z</time>
      </trkpt>
      <trkpt lat="51.96873900" lon="9.533607000">
        <ele>293.82000</ele>
        <time>2012-03-08T18:37:58Z</time>
      </trkpt>
      <trkpt lat="51.96891000" lon="9.533597000">
        <ele>294.78000</ele>
        <time>2012-03-08T18:38:05Z</time>
      </trkpt>
      <trkpt lat="51.96906300" lon="9.533546000">
        <ele>296.70000</ele>
        <time>2012-03-08T18:38:11Z</time>
      </trkpt>
      <trkpt lat="51.96918900" lon="9.533451000">
        <ele>298.15000</ele>
        <time>2012-03-08T18:38:17Z</time>
      </trkpt>
      <trkpt lat="51.96928800" lon="9.533371000">
        <ele>299.11000</ele>
        <time>2012-03-08T18:38:21Z</time>
      </trkpt>
      <trkpt lat="51.96945600" lon="9.533148000">
        <ele>300.07000</ele>
        <time>2012-03-08T18:38:30Z</time>
      </trkpt>
      <trkpt lat="51.96955100" lon="9.532994000">
        <ele>300.55000</ele>
        <time>2012-03-08T18:38:35Z</time>
      </trkpt>
      <trkpt lat="51.96970700" lon="9.532794000">
        <ele>301.51000</ele>
        <time>2012-03-08T18:38:43Z</time>
      </trkpt>
      <trkpt lat="51.96985200" lon="9.532548000">
        <ele>301.03000</ele>
        <time>2012-03-08T18:38:52Z</time>
      </trkpt>
      <trkpt lat="51.96991000" lon="9.532469000">
        <ele>301.03000</ele>
        <time>2012-03-08T18:38:55Z</time>
      </trkpt>
      <trkpt lat="51.97003200" lon="9.532248000">
        <ele>300.07000</ele>
        <time>2012-03-08T18:39:02Z</time>
      </trkpt>
      <trkpt lat="51.97016100" lon="9.532048000">
        <ele>300.07000</ele>
        <time>2012-03-08T18:39:09Z</time>
      </trkpt>
      <trkpt lat="51.97029500" lon="9.531890000">
        <ele>299.59000</ele>
        <time>2012-03-08T18:39:16Z</time>
      </trkpt>
      <trkpt lat="51.97033300" lon="9.531837000">
        <ele>299.59000</ele>
        <time>2012-03-08T18:39:18Z</time>
      </trkpt>
      <trkpt lat="51.97040900" lon="9.531755000">
        <ele>300.07000</ele>
        <time>2012-03-08T18:39:22Z</time>
      </trkpt>
      <trkpt lat="51.97047000" lon="9.531673000">
        <ele>300.55000</ele>
        <time>2012-03-08T18:39:25Z</time>
      </trkpt>
      <trkpt lat="51.97055800" lon="9.531603000">
        <ele>299.59000</ele>
        <time>2012-03-08T18:39:29Z</time>
      </trkpt>
      <trkpt lat="51.97056600" lon="9.531591000">
        <ele>300.55000</ele>
        <time>2012-03-08T18:39:29Z</time>
      </trkpt>
      <trkpt lat="51.97069900" lon="9.531461000">
        <ele>298.63000</ele>
        <time>2012-03-08T18:39:35Z</time>
      </trkpt>
      <trkpt lat="51.97084800" lon="9.531322000">
        <ele>298.15000</ele>
        <time>2012-03-08T18:39:42Z</time>
      </trkpt>
      <trkpt lat="51.97085600" lon="9.531279000">
        <ele>298.15000</ele>
        <time>2012-03-08T18:39:43Z</time>
      </trkpt>
      <trkpt lat="51.97086300" lon="9.531281000">
        <ele>297.18000</ele>
        <time>2012-03-08T18:39:44Z</time>
      </trkpt>
      <trkpt lat="51.97086700" lon="9.531199000">
        <ele>297.18000</ele>
        <time>2012-03-08T18:39:46Z</time>
      </trkpt>
      <trkpt lat="51.97089000" lon="9.531148000">
        <ele>297.18000</ele>
        <time>2012-03-08T18:39:47Z</time>
      </trkpt>
      <trkpt lat="51.97091700" lon="9.531098000">
        <ele>296.70000</ele>
        <time>2012-03-08T18:39:49Z</time>
      </trkpt>
      <trkpt lat="51.97093200" lon="9.531000000">
        <ele>296.70000</ele>
        <time>2012-03-08T18:39:51Z</time>
      </trkpt>
      <trkpt lat="51.97095100" lon="9.530844000">
        <ele>296.70000</ele>
        <time>2012-03-08T18:39:55Z</time>
      </trkpt>
      <trkpt lat="51.97097000" lon="9.530711000">
        <ele>296.22000</ele>
        <time>2012-03-08T18:39:59Z</time>
      </trkpt>
      <trkpt lat="51.97098200" lon="9.530650000">
        <ele>295.74000</ele>
        <time>2012-03-08T18:40:00Z</time>
      </trkpt>
      <trkpt lat="51.97100100" lon="9.530470000">
        <ele>295.26000</ele>
        <time>2012-03-08T18:40:05Z</time>
      </trkpt>
      <trkpt lat="51.97105000" lon="9.530323000">
        <ele>293.82000</ele>
        <time>2012-03-08T18:40:09Z</time>
      </trkpt>
      <trkpt lat="51.97111900" lon="9.530101000">
        <ele>291.42000</ele>
        <time>2012-03-08T18:40:15Z</time>
      </trkpt>
      <trkpt lat="51.97117600" lon="9.529888000">
        <ele>288.05000</ele>
        <time>2012-03-08T18:40:21Z</time>
      </trkpt>
      <trkpt lat="51.97125200" lon="9.529714000">
        <ele>285.17000</ele>
        <time>2012-03-08T18:40:26Z</time>
      </trkpt>
      <trkpt lat="51.97127500" lon="9.529601000">
        <ele>282.77000</ele>
        <time>2012-03-08T18:40:29Z</time>
      </trkpt>
      <trkpt lat="51.97130200" lon="9.529548000">
        <ele>281.80000</ele>
        <time>2012-03-08T18:40:31Z</time>
      </trkpt>
      <trkpt lat="51.97133600" lon="9.529474000">
        <ele>280.36000</ele>
        <time>2012-03-08T18:40:33Z</time>
      </trkpt>
      <trkpt lat="51.97134800" lon="9.529452000">
        <ele>279.88000</ele>
        <time>2012-03-08T18:40:34Z</time>
      </trkpt>
      <trkpt lat="51.97140500" lon="9.529427000">
        <ele>278.92000</ele>
        <time>2012-03-08T18:40:36Z</time>
      </trkpt>
      <trkpt lat="51.97142000" lon="9.529440000">
        <ele>278.92000</ele>
        <time>2012-03-08T18:40:37Z</time>
      </trkpt>
      <trkpt lat="51.97153100" lon="9.529547000">
        <ele>276.52000</ele>
        <time>2012-03-08T18:40:42Z</time>
      </trkpt>
      <trkpt lat="51.97154200" lon="9.529514000">
        <ele>276.04000</ele>
        <time>2012-03-08T18:40:43Z</time>
      </trkpt>
      <trkpt lat="51.97154200" lon="9.529418000">
        <ele>275.56000</ele>
        <time>2012-03-08T18:40:45Z</time>
      </trkpt>
      <trkpt lat="51.97156900" lon="9.529352000">
        <ele>275.56000</ele>
        <time>2012-03-08T18:40:47Z</time>
      </trkpt>
      <trkpt lat="51.97168400" lon="9.529121000">
        <ele>272.19000</ele>
        <time>2012-03-08T18:40:54Z</time>
      </trkpt>
      <trkpt lat="51.97172900" lon="9.529056000">
        <ele>271.71000</ele>
        <time>2012-03-08T18:40:57Z</time>
      </trkpt>
      <trkpt lat="51.97181300" lon="9.529012000">
        <ele>271.23000</ele>
        <time>2012-03-08T18:41:00Z</time>
      </trkpt>
      <trkpt lat="51.97182100" lon="9.529012000">
        <ele>271.23000</ele>
        <time>2012-03-08T18:41:01Z</time>
      </trkpt>
      <trkpt lat="51.97188900" lon="9.529090000">
        <ele>270.75000</ele>
        <time>2012-03-08T18:41:04Z</time>
      </trkpt>
      <trkpt lat="51.97203800" lon="9.529186000">
        <ele>270.75000</ele>
        <time>2012-03-08T18:41:10Z</time>
      </trkpt>
      <trkpt lat="51.97209500" lon="9.528890000">
        <ele>269.79000</ele>
        <time>2012-03-08T18:41:18Z</time>
      </trkpt>
      <trkpt lat="51.97219500" lon="9.528669000">
        <ele>269.31000</ele>
        <time>2012-03-08T18:41:25Z</time>
      </trkpt>
      <trkpt lat="51.97232100" lon="9.528752000">
        <ele>269.31000</ele>
        <time>2012-03-08T18:41:30Z</time>
      </trkpt>
      <trkpt lat="51.97240100" lon="9.528761000">
        <ele>269.31000</ele>
        <time>2012-03-08T18:41:33Z</time>
      </trkpt>
      <trkpt lat="51.97242700" lon="9.528745000">
        <ele>269.31000</ele>
        <time>2012-03-08T18:41:35Z</time>
      </trkpt>
      <trkpt lat="51.97266000" lon="9.528531000">
        <ele>267.86000</ele>
        <time>2012-03-08T18:41:45Z</time>
      </trkpt>
      <trkpt lat="51.97277500" lon="9.528438000">
        <ele>268.35000</ele>
        <time>2012-03-08T18:41:50Z</time>
      </trkpt>
      <trkpt lat="51.97280500" lon="9.528399000">
        <ele>267.86000</ele>
        <time>2012-03-08T18:41:52Z</time>
      </trkpt>
      <trkpt lat="51.97293500" lon="9.528312000">
        <ele>266.90000</ele>
        <time>2012-03-08T18:41:58Z</time>
      </trkpt>
      <trkpt lat="51.97311800" lon="9.528180000">
        <ele>265.46000</ele>
        <time>2012-03-08T18:42:06Z</time>
      </trkpt>
      <trkpt lat="51.97314100" lon="9.528170000">
        <ele>264.98000</ele>
        <time>2012-03-08T18:42:07Z</time>
      </trkpt>
      <trkpt lat="51.97319400" lon="9.528160000">
        <ele>264.50000</ele>
        <time>2012-03-08T18:42:09Z</time>
      </trkpt>
      <trkpt lat="51.97325100" lon="9.528142000">
        <ele>264.50000</ele>
        <time>2012-03-08T18:42:11Z</time>
      </trkpt>
      <trkpt lat="51.97325900" lon="9.528129000">
        <ele>264.50000</ele>
        <time>2012-03-08T18:42:11Z</time>
      </trkpt>
      <trkpt lat="51.97330100" lon="9.528102000">
        <ele>264.02000</ele>
        <time>2012-03-08T18:42:13Z</time>
      </trkpt>
      <trkpt lat="51.97335800" lon="9.528059000">
        <ele>264.02000</ele>
        <time>2012-03-08T18:42:16Z</time>
      </trkpt>
      <trkpt lat="51.97348800" lon="9.528023000">
        <ele>263.06000</ele>
        <time>2012-03-08T18:42:21Z</time>
      </trkpt>
      <trkpt lat="51.97354900" lon="9.527991000">
        <ele>263.06000</ele>
        <time>2012-03-08T18:42:24Z</time>
      </trkpt>
      <trkpt lat="51.97365600" lon="9.527940000">
        <ele>261.62000</ele>
        <time>2012-03-08T18:42:28Z</time>
      </trkpt>
      <trkpt lat="51.97368600" lon="9.527942000">
        <ele>262.10000</ele>
        <time>2012-03-08T18:42:29Z</time>
      </trkpt>
      <trkpt lat="51.97371300" lon="9.527936000">
        <ele>261.62000</ele>
        <time>2012-03-08T18:42:30Z</time>
      </trkpt>
      <trkpt lat="51.97379700" lon="9.527907000">
        <ele>260.65000</ele>
        <time>2012-03-08T18:42:34Z</time>
      </trkpt>
      <trkpt lat="51.97389200" lon="9.527876000">
        <ele>255.85000</ele>
        <time>2012-03-08T18:42:38Z</time>
      </trkpt>
      <trkpt lat="51.97388800" lon="9.527880000">
        <ele>259.21000</ele>
        <time>2012-03-08T18:42:38Z</time>
      </trkpt>
      <trkpt lat="51.97400700" lon="9.527854000">
        <ele>259.21000</ele>
        <time>2012-03-08T18:42:43Z</time>
      </trkpt>
      <trkpt lat="51.97401400" lon="9.527846000">
        <ele>265.94000</ele>
        <time>2012-03-08T18:42:43Z</time>
      </trkpt>
      <trkpt lat="51.97400700" lon="9.527760000">
        <ele>260.17000</ele>
        <time>2012-03-08T18:42:45Z</time>
      </trkpt>
      <trkpt lat="51.97419400" lon="9.527728000">
        <ele>257.77000</ele>
        <time>2012-03-08T18:42:53Z</time>
      </trkpt>
      <trkpt lat="51.97426200" lon="9.527678000">
        <ele>256.81000</ele>
        <time>2012-03-08T18:42:56Z</time>
      </trkpt>
      <trkpt lat="51.97438400" lon="9.527612000">
        <ele>256.33000</ele>
        <time>2012-03-08T18:43:01Z</time>
      </trkpt>
      <trkpt lat="51.97443000" lon="9.527619000">
        <ele>256.33000</ele>
        <time>2012-03-08T18:43:03Z</time>
      </trkpt>
      <trkpt lat="51.97442600" lon="9.527618000">
        <ele>255.85000</ele>
        <time>2012-03-08T18:43:03Z</time>
      </trkpt>
      <trkpt lat="51.97449900" lon="9.527560000">
        <ele>254.89000</ele>
        <time>2012-03-08T18:43:06Z</time>
      </trkpt>
      <trkpt lat="51.97461300" lon="9.527452000">
        <ele>253.93000</ele>
        <time>2012-03-08T18:43:11Z</time>
      </trkpt>
      <trkpt lat="51.97481500" lon="9.527493000">
        <ele>252.48000</ele>
        <time>2012-03-08T18:43:20Z</time>
      </trkpt>
      <trkpt lat="51.97493700" lon="9.527462000">
        <ele>252.00000</ele>
        <time>2012-03-08T18:43:24Z</time>
      </trkpt>
      <trkpt lat="51.97497200" lon="9.527335000">
        <ele>251.52000</ele>
        <time>2012-03-08T18:43:28Z</time>
      </trkpt>
      <trkpt lat="51.97502900" lon="9.527250000">
        <ele>251.52000</ele>
        <time>2012-03-08T18:43:31Z</time>
      </trkpt>
      <trkpt lat="51.97519700" lon="9.527244000">
        <ele>250.08000</ele>
        <time>2012-03-08T18:43:38Z</time>
      </trkpt>
      <trkpt lat="51.97524300" lon="9.527205000">
        <ele>249.60000</ele>
        <time>2012-03-08T18:43:40Z</time>
      </trkpt>
      <trkpt lat="51.97531100" lon="9.527113000">
        <ele>249.12000</ele>
        <time>2012-03-08T18:43:43Z</time>
      </trkpt>
      <trkpt lat="51.97542200" lon="9.526860000">
        <ele>246.72000</ele>
        <time>2012-03-08T18:43:51Z</time>
      </trkpt>
      <trkpt lat="51.97543300" lon="9.526846000">
        <ele>246.72000</ele>
        <time>2012-03-08T18:43:52Z</time>
      </trkpt>
      <trkpt lat="51.97559400" lon="9.526680000">
        <ele>244.31000</ele>
        <time>2012-03-08T18:43:59Z</time>
      </trkpt>
      <trkpt lat="51.97579600" lon="9.526522000">
        <ele>240.47000</ele>
        <time>2012-03-08T18:44:08Z</time>
      </trkpt>
      <trkpt lat="51.97584900" lon="9.526482000">
        <ele>241.43000</ele>
        <time>2012-03-08T18:44:11Z</time>
      </trkpt>
      <trkpt lat="51.97589100" lon="9.526506000">
        <ele>240.95000</ele>
        <time>2012-03-08T18:44:12Z</time>
      </trkpt>
      <trkpt lat="51.97597500" lon="9.526467000">
        <ele>239.51000</ele>
        <time>2012-03-08T18:44:16Z</time>
      </trkpt>
      <trkpt lat="51.97607000" lon="9.526422000">
        <ele>237.58000</ele>
        <time>2012-03-08T18:44:20Z</time>
      </trkpt>
      <trkpt lat="51.97608200" lon="9.526412000">
        <ele>237.58000</ele>
        <time>2012-03-08T18:44:20Z</time>
      </trkpt>
      <trkpt lat="51.97616200" lon="9.526314000">
        <ele>235.66000</ele>
        <time>2012-03-08T18:44:24Z</time>
      </trkpt>
      <trkpt lat="51.97637200" lon="9.526158000">
        <ele>237.10000</ele>
        <time>2012-03-08T18:44:34Z</time>
      </trkpt>
      <trkpt lat="51.97647100" lon="9.526065000">
        <ele>237.58000</ele>
        <time>2012-03-08T18:44:38Z</time>
      </trkpt>
      <trkpt lat="51.97655100" lon="9.526071000">
        <ele>236.62000</ele>
        <time>2012-03-08T18:44:41Z</time>
      </trkpt>
      <trkpt lat="51.97681000" lon="9.526091000">
        <ele>237.10000</ele>
        <time>2012-03-08T18:44:52Z</time>
      </trkpt>
      <trkpt lat="51.97682600" lon="9.526091000">
        <ele>237.58000</ele>
        <time>2012-03-08T18:44:52Z</time>
      </trkpt>
      <trkpt lat="51.97694400" lon="9.526024000">
        <ele>236.62000</ele>
        <time>2012-03-08T18:44:57Z</time>
      </trkpt>
      <trkpt lat="51.97711600" lon="9.525919000">
        <ele>237.10000</ele>
        <time>2012-03-08T18:45:05Z</time>
      </trkpt>
      <trkpt lat="51.97712300" lon="9.525923000">
        <ele>236.14000</ele>
        <time>2012-03-08T18:45:05Z</time>
      </trkpt>
      <trkpt lat="51.97719200" lon="9.525960000">
        <ele>236.62000</ele>
        <time>2012-03-08T18:45:08Z</time>
      </trkpt>
      <trkpt lat="51.97731400" lon="9.525981000">
        <ele>238.06000</ele>
        <time>2012-03-08T18:45:13Z</time>
      </trkpt>
      <trkpt lat="51.97725300" lon="9.525965000">
        <ele>238.54000</ele>
        <time>2012-03-08T18:45:15Z</time>
      </trkpt>
      <trkpt lat="51.97721100" lon="9.525992000">
        <ele>238.06000</ele>
        <time>2012-03-08T18:45:17Z</time>
      </trkpt>
      <trkpt lat="51.97724900" lon="9.525986000">
        <ele>238.54000</ele>
        <time>2012-03-08T18:45:19Z</time>
      </trkpt>
      <trkpt lat="51.97730600" lon="9.525970000">
        <ele>238.54000</ele>
        <time>2012-03-08T18:45:21Z</time>
      </trkpt>
      <trkpt lat="51.97734800" lon="9.525977000">
        <ele>239.02000</ele>
        <time>2012-03-08T18:45:23Z</time>
      </trkpt>
      <trkpt lat="51.97755400" lon="9.526050000">
        <ele>242.87000</ele>
        <time>2012-03-08T18:45:31Z</time>
      </trkpt>
      <trkpt lat="51.97765400" lon="9.526111000">
        <ele>244.79000</ele>
        <time>2012-03-08T18:45:35Z</time>
      </trkpt>
      <trkpt lat="51.97774100" lon="9.526215000">
        <ele>246.72000</ele>
        <time>2012-03-08T18:45:40Z</time>
      </trkpt>
      <trkpt lat="51.97782100" lon="9.526089000">
        <ele>247.68000</ele>
        <time>2012-03-08T18:45:44Z</time>
      </trkpt>
      <trkpt lat="51.97781800" lon="9.526087000">
        <ele>248.16000</ele>
        <time>2012-03-08T18:45:44Z</time>
      </trkpt>
      <trkpt lat="51.97781000" lon="9.526104000">
        <ele>247.20000</ele>
        <time>2012-03-08T18:45:45Z</time>
      </trkpt>
      <trkpt lat="51.97776800" lon="9.526123000">
        <ele>248.64000</ele>
        <time>2012-03-08T18:45:47Z</time>
      </trkpt>
      <trkpt lat="51.97771100" lon="9.526078000">
        <ele>248.16000</ele>
        <time>2012-03-08T18:45:49Z</time>
      </trkpt>
      <trkpt lat="51.97774900" lon="9.526018000">
        <ele>247.68000</ele>
        <time>2012-03-08T18:45:51Z</time>
      </trkpt>
      <trkpt lat="51.97777600" lon="9.526027000">
        <ele>247.20000</ele>
        <time>2012-03-08T18:45:52Z</time>
      </trkpt>
      <trkpt lat="51.97780200" lon="9.526062000">
        <ele>247.68000</ele>
        <time>2012-03-08T18:45:54Z</time>
      </trkpt>
      <trkpt lat="51.97775700" lon="9.526110000">
        <ele>247.20000</ele>
        <time>2012-03-08T18:45:56Z</time>
      </trkpt>
      <trkpt lat="51.97780600" lon="9.526164000">
        <ele>247.68000</ele>
        <time>2012-03-08T18:45:58Z</time>
      </trkpt>
      <trkpt lat="51.97779800" lon="9.526166000">
        <ele>247.68000</ele>
        <time>2012-03-08T18:45:59Z</time>
      </trkpt>
      <trkpt lat="51.97780200" lon="9.526170000">
        <ele>248.16000</ele>
        <time>2012-03-08T18:45:59Z</time>
      </trkpt>
      <trkpt lat="51.97776000" lon="9.526126000">
        <ele>248.64000</ele>
        <time>2012-03-08T18:46:01Z</time>
      </trkpt>
      <trkpt lat="51.97777200" lon="9.526137000">
        <ele>248.16000</ele>
        <time>2012-03-08T18:46:01Z</time>
      </trkpt>
      <trkpt lat="51.97777200" lon="9.526134000">
        <ele>249.12000</ele>
        <time>2012-03-08T18:46:01Z</time>
      </trkpt>
      <trkpt lat="51.97777200" lon="9.526132000">
        <ele>249.60000</ele>
        <time>2012-03-08T18:46:01Z</time>
      </trkpt>
      <trkpt lat="51.97777200" lon="9.526139000">
        <ele>249.12000</ele>
        <time>2012-03-08T18:46:02Z</time>
      </trkpt>
      <trkpt lat="51.97777200" lon="9.526138000">
        <ele>249.12000</ele>
        <time>2012-03-08T18:46:02Z</time>
      </trkpt>
      <trkpt lat="51.97777900" lon="9.526125000">
        <ele>249.12000</ele>
        <time>2012-03-08T18:46:02Z</time>
      </trkpt>
      <trkpt lat="51.97778700" lon="9.526089000">
        <ele>249.12000</ele>
        <time>2012-03-08T18:46:03Z</time>
      </trkpt>
      <trkpt lat="51.97781800" lon="9.526099000">
        <ele>251.52000</ele>
        <time>2012-03-08T18:46:04Z</time>
      </trkpt>
      <trkpt lat="51.97782500" lon="9.526143000">
        <ele>252.96000</ele>
        <time>2012-03-08T18:46:05Z</time>
      </trkpt>
      <trkpt lat="51.97788600" lon="9.526224000">
        <ele>254.41000</ele>
        <time>2012-03-08T18:46:08Z</time>
      </trkpt>
      <trkpt lat="51.97781400" lon="9.526433000">
        <ele>253.44000</ele>
        <time>2012-03-08T18:46:14Z</time>
      </trkpt>
      <trkpt lat="51.97777900" lon="9.526468000">
        <ele>255.37000</ele>
        <time>2012-03-08T18:46:16Z</time>
      </trkpt>
      <trkpt lat="51.97777600" lon="9.526532000">
        <ele>256.81000</ele>
        <time>2012-03-08T18:46:18Z</time>
      </trkpt>
      <trkpt lat="51.97777900" lon="9.526608000">
        <ele>256.81000</ele>
        <time>2012-03-08T18:46:19Z</time>
      </trkpt>
      <trkpt lat="51.97779500" lon="9.526988000">
        <ele>257.77000</ele>
        <time>2012-03-08T18:46:29Z</time>
      </trkpt>
      <trkpt lat="51.97776000" lon="9.527124000">
        <ele>258.25000</ele>
        <time>2012-03-08T18:46:32Z</time>
      </trkpt>
      <trkpt lat="51.97759200" lon="9.527208000">
        <ele>260.17000</ele>
        <time>2012-03-08T18:46:40Z</time>
      </trkpt>
      <trkpt lat="51.97751600" lon="9.527239000">
        <ele>260.65000</ele>
        <time>2012-03-08T18:46:43Z</time>
      </trkpt>
      <trkpt lat="51.97745900" lon="9.527294000">
        <ele>261.14000</ele>
        <time>2012-03-08T18:46:45Z</time>
      </trkpt>
      <trkpt lat="51.97729100" lon="9.527456000">
        <ele>261.62000</ele>
        <time>2012-03-08T18:46:53Z</time>
      </trkpt>
      <trkpt lat="51.97716100" lon="9.527518000">
        <ele>263.06000</ele>
        <time>2012-03-08T18:46:59Z</time>
      </trkpt>
      <trkpt lat="51.97710800" lon="9.527589000">
        <ele>263.06000</ele>
        <time>2012-03-08T18:47:01Z</time>
      </trkpt>
      <trkpt lat="51.97707000" lon="9.527620000">
        <ele>263.54000</ele>
        <time>2012-03-08T18:47:03Z</time>
      </trkpt>
      <trkpt lat="51.97702000" lon="9.527779000">
        <ele>264.50000</ele>
        <time>2012-03-08T18:47:07Z</time>
      </trkpt>
      <trkpt lat="51.97697800" lon="9.527827000">
        <ele>264.98000</ele>
        <time>2012-03-08T18:47:09Z</time>
      </trkpt>
      <trkpt lat="51.97692100" lon="9.527848000">
        <ele>264.98000</ele>
        <time>2012-03-08T18:47:12Z</time>
      </trkpt>
      <trkpt lat="51.97685600" lon="9.527879000">
        <ele>265.94000</ele>
        <time>2012-03-08T18:47:15Z</time>
      </trkpt>
      <trkpt lat="51.97684900" lon="9.527882000">
        <ele>265.94000</ele>
        <time>2012-03-08T18:47:15Z</time>
      </trkpt>
      <trkpt lat="51.97685200" lon="9.527902000">
        <ele>264.50000</ele>
        <time>2012-03-08T18:47:15Z</time>
      </trkpt>
      <trkpt lat="51.97692900" lon="9.527946000">
        <ele>264.02000</ele>
        <time>2012-03-08T18:47:19Z</time>
      </trkpt>
      <trkpt lat="51.97693600" lon="9.527944000">
        <ele>263.54000</ele>
        <time>2012-03-08T18:47:19Z</time>
      </trkpt>
      <trkpt lat="51.97701600" lon="9.527619000">
        <ele>263.06000</ele>
        <time>2012-03-08T18:47:28Z</time>
      </trkpt>
      <trkpt lat="51.97711200" lon="9.527510000">
        <ele>260.65000</ele>
        <time>2012-03-08T18:47:32Z</time>
      </trkpt>
      <trkpt lat="51.97723400" lon="9.527406000">
        <ele>260.17000</ele>
        <time>2012-03-08T18:47:38Z</time>
      </trkpt>
      <trkpt lat="51.97748600" lon="9.527245000">
        <ele>257.77000</ele>
        <time>2012-03-08T18:47:49Z</time>
      </trkpt>
      <trkpt lat="51.97763100" lon="9.527104000">
        <ele>256.33000</ele>
        <time>2012-03-08T18:47:55Z</time>
      </trkpt>
      <trkpt lat="51.97769900" lon="9.526750000">
        <ele>255.85000</ele>
        <time>2012-03-08T18:48:04Z</time>
      </trkpt>
      <trkpt lat="51.97772200" lon="9.526513000">
        <ele>253.93000</ele>
        <time>2012-03-08T18:48:10Z</time>
      </trkpt>
      <trkpt lat="51.97775300" lon="9.526339000">
        <ele>250.56000</ele>
        <time>2012-03-08T18:48:15Z</time>
      </trkpt>
      <trkpt lat="51.97775300" lon="9.526302000">
        <ele>248.64000</ele>
        <time>2012-03-08T18:48:16Z</time>
      </trkpt>
      <trkpt lat="51.97759200" lon="9.526091000">
        <ele>246.23000</ele>
        <time>2012-03-08T18:48:24Z</time>
      </trkpt>
      <trkpt lat="51.97757300" lon="9.526075000">
        <ele>244.79000</ele>
        <time>2012-03-08T18:48:25Z</time>
      </trkpt>
      <trkpt lat="51.97750900" lon="9.526086000">
        <ele>241.43000</ele>
        <time>2012-03-08T18:48:27Z</time>
      </trkpt>
      <trkpt lat="51.97737500" lon="9.526021000">
        <ele>238.54000</ele>
        <time>2012-03-08T18:48:33Z</time>
      </trkpt>
      <trkpt lat="51.97742800" lon="9.525896000">
        <ele>237.10000</ele>
        <time>2012-03-08T18:48:37Z</time>
      </trkpt>
      <trkpt lat="51.97755100" lon="9.525827000">
        <ele>237.58000</ele>
        <time>2012-03-08T18:48:42Z</time>
      </trkpt>
      <trkpt lat="51.97759600" lon="9.525826000">
        <ele>237.58000</ele>
        <time>2012-03-08T18:48:44Z</time>
      </trkpt>
      <trkpt lat="51.97762300" lon="9.525824000">
        <ele>238.06000</ele>
        <time>2012-03-08T18:48:45Z</time>
      </trkpt>
      <trkpt lat="51.97785600" lon="9.525811000">
        <ele>237.58000</ele>
        <time>2012-03-08T18:48:54Z</time>
      </trkpt>
      <trkpt lat="51.97813400" lon="9.525769000">
        <ele>237.10000</ele>
        <time>2012-03-08T18:49:05Z</time>
      </trkpt>
      <trkpt lat="51.97830200" lon="9.525799000">
        <ele>236.14000</ele>
        <time>2012-03-08T18:49:12Z</time>
      </trkpt>
      <trkpt lat="51.97831000" lon="9.525798000">
        <ele>237.10000</ele>
        <time>2012-03-08T18:49:12Z</time>
      </trkpt>
      <trkpt lat="51.97828300" lon="9.525826000">
        <ele>237.10000</ele>
        <time>2012-03-08T18:49:14Z</time>
      </trkpt>
      <trkpt lat="51.97837100" lon="9.525782000">
        <ele>236.14000</ele>
        <time>2012-03-08T18:49:17Z</time>
      </trkpt>
      <trkpt lat="51.97860300" lon="9.525833000">
        <ele>236.14000</ele>
        <time>2012-03-08T18:49:27Z</time>
      </trkpt>
      <trkpt lat="51.97874500" lon="9.525946000">
        <ele>231.81000</ele>
        <time>2012-03-08T18:49:33Z</time>
      </trkpt>
      <trkpt lat="51.97875600" lon="9.525960000">
        <ele>235.66000</ele>
        <time>2012-03-08T18:49:34Z</time>
      </trkpt>
      <trkpt lat="51.97882800" lon="9.526123000">
        <ele>232.78000</ele>
        <time>2012-03-08T18:49:39Z</time>
      </trkpt>
      <trkpt lat="51.97884400" lon="9.526172000">
        <ele>231.33000</ele>
        <time>2012-03-08T18:49:40Z</time>
      </trkpt>
      <trkpt lat="51.97884400" lon="9.526193000">
        <ele>235.66000</ele>
        <time>2012-03-08T18:49:41Z</time>
      </trkpt>
      <trkpt lat="51.97884800" lon="9.526220000">
        <ele>234.22000</ele>
        <time>2012-03-08T18:49:41Z</time>
      </trkpt>
      <trkpt lat="51.97885100" lon="9.526262000">
        <ele>233.74000</ele>
        <time>2012-03-08T18:49:42Z</time>
      </trkpt>
      <trkpt lat="51.97883200" lon="9.526551000">
        <ele>232.78000</ele>
        <time>2012-03-08T18:49:49Z</time>
      </trkpt>
      <trkpt lat="51.97887000" lon="9.526666000">
        <ele>231.81000</ele>
        <time>2012-03-08T18:49:53Z</time>
      </trkpt>
      <trkpt lat="51.97892400" lon="9.526826000">
        <ele>230.85000</ele>
        <time>2012-03-08T18:49:57Z</time>
      </trkpt>
      <trkpt lat="51.97893100" lon="9.526950000">
        <ele>230.37000</ele>
        <time>2012-03-08T18:50:00Z</time>
      </trkpt>
      <trkpt lat="51.97894700" lon="9.527037000">
        <ele>229.89000</ele>
        <time>2012-03-08T18:50:02Z</time>
      </trkpt>
      <trkpt lat="51.97895100" lon="9.527348000">
        <ele>229.41000</ele>
        <time>2012-03-08T18:50:10Z</time>
      </trkpt>
      <trkpt lat="51.97895800" lon="9.527581000">
        <ele>228.45000</ele>
        <time>2012-03-08T18:50:16Z</time>
      </trkpt>
      <trkpt lat="51.97895800" lon="9.527664000">
        <ele>227.49000</ele>
        <time>2012-03-08T18:50:18Z</time>
      </trkpt>
      <trkpt lat="51.97895400" lon="9.527880000">
        <ele>224.61000</ele>
        <time>2012-03-08T18:50:23Z</time>
      </trkpt>
      <trkpt lat="51.97895100" lon="9.528058000">
        <ele>222.20000</ele>
        <time>2012-03-08T18:50:28Z</time>
      </trkpt>
      <trkpt lat="51.97897700" lon="9.528203000">
        <ele>222.20000</ele>
        <time>2012-03-08T18:50:31Z</time>
      </trkpt>
      <trkpt lat="51.97908000" lon="9.528652000">
        <ele>221.72000</ele>
        <time>2012-03-08T18:50:43Z</time>
      </trkpt>
      <trkpt lat="51.97906500" lon="9.529123000">
        <ele>220.76000</ele>
        <time>2012-03-08T18:50:55Z</time>
      </trkpt>
      <trkpt lat="51.97907300" lon="9.529157000">
        <ele>219.32000</ele>
        <time>2012-03-08T18:50:56Z</time>
      </trkpt>
      <trkpt lat="51.97907300" lon="9.529440000">
        <ele>217.40000</ele>
        <time>2012-03-08T18:51:03Z</time>
      </trkpt>
      <trkpt lat="51.97908400" lon="9.529502000">
        <ele>216.43000</ele>
        <time>2012-03-08T18:51:04Z</time>
      </trkpt>
      <trkpt lat="51.97911100" lon="9.529646000">
        <ele>214.99000</ele>
        <time>2012-03-08T18:51:08Z</time>
      </trkpt>
      <trkpt lat="51.97916400" lon="9.529943000">
        <ele>212.59000</ele>
        <time>2012-03-08T18:51:16Z</time>
      </trkpt>
      <trkpt lat="51.97916000" lon="9.529944000">
        <ele>211.63000</ele>
        <time>2012-03-08T18:51:16Z</time>
      </trkpt>
      <trkpt lat="51.97915600" lon="9.530167000">
        <ele>209.70000</ele>
        <time>2012-03-08T18:51:21Z</time>
      </trkpt>
      <trkpt lat="51.97914100" lon="9.530271000">
        <ele>209.70000</ele>
        <time>2012-03-08T18:51:24Z</time>
      </trkpt>
      <trkpt lat="51.97914500" lon="9.530347000">
        <ele>209.22000</ele>
        <time>2012-03-08T18:51:26Z</time>
      </trkpt>
      <trkpt lat="51.97914900" lon="9.530487000">
        <ele>208.26000</ele>
        <time>2012-03-08T18:51:29Z</time>
      </trkpt>
      <trkpt lat="51.97922900" lon="9.530924000">
        <ele>205.38000</ele>
        <time>2012-03-08T18:51:41Z</time>
      </trkpt>
      <trkpt lat="51.97924800" lon="9.530997000">
        <ele>204.90000</ele>
        <time>2012-03-08T18:51:42Z</time>
      </trkpt>
      <trkpt lat="51.97927900" lon="9.531152000">
        <ele>203.46000</ele>
        <time>2012-03-08T18:51:46Z</time>
      </trkpt>
      <trkpt lat="51.97927500" lon="9.531253000">
        <ele>202.49000</ele>
        <time>2012-03-08T18:51:49Z</time>
      </trkpt>
      <trkpt lat="51.97929800" lon="9.531499000">
        <ele>199.61000</ele>
        <time>2012-03-08T18:51:55Z</time>
      </trkpt>
      <trkpt lat="51.97926300" lon="9.531531000">
        <ele>198.17000</ele>
        <time>2012-03-08T18:51:57Z</time>
      </trkpt>
      <trkpt lat="51.97930900" lon="9.531639000">
        <ele>197.21000</ele>
        <time>2012-03-08T18:52:00Z</time>
      </trkpt>
      <trkpt lat="51.97939300" lon="9.532029000">
        <ele>195.77000</ele>
        <time>2012-03-08T18:52:10Z</time>
      </trkpt>
      <trkpt lat="51.97937400" lon="9.532213000">
        <ele>194.80000</ele>
        <time>2012-03-08T18:52:15Z</time>
      </trkpt>
      <trkpt lat="51.97934300" lon="9.532457000">
        <ele>194.80000</ele>
        <time>2012-03-08T18:52:21Z</time>
      </trkpt>
      <trkpt lat="51.97931700" lon="9.532701000">
        <ele>191.92000</ele>
        <time>2012-03-08T18:52:27Z</time>
      </trkpt>
      <trkpt lat="51.97930900" lon="9.532763000">
        <ele>190.00000</ele>
        <time>2012-03-08T18:52:29Z</time>
      </trkpt>
      <trkpt lat="51.97926700" lon="9.533027000">
        <ele>189.52000</ele>
        <time>2012-03-08T18:52:35Z</time>
      </trkpt>
      <trkpt lat="51.97920200" lon="9.533083000">
        <ele>190.00000</ele>
        <time>2012-03-08T18:52:38Z</time>
      </trkpt>
      <trkpt lat="51.97917200" lon="9.533089000">
        <ele>190.00000</ele>
        <time>2012-03-08T18:52:39Z</time>
      </trkpt>
      <trkpt lat="51.97914100" lon="9.533112000">
        <ele>190.96000</ele>
        <time>2012-03-08T18:52:41Z</time>
      </trkpt>
      <trkpt lat="51.97907300" lon="9.533183000">
        <ele>191.92000</ele>
        <time>2012-03-08T18:52:44Z</time>
      </trkpt>
      <trkpt lat="51.97906100" lon="9.533461000">
        <ele>189.04000</ele>
        <time>2012-03-08T18:52:51Z</time>
      </trkpt>
      <trkpt lat="51.97904200" lon="9.533665000">
        <ele>186.63000</ele>
        <time>2012-03-08T18:52:56Z</time>
      </trkpt>
      <trkpt lat="51.97903400" lon="9.533688000">
        <ele>186.15000</ele>
        <time>2012-03-08T18:52:57Z</time>
      </trkpt>
      <trkpt lat="51.97893500" lon="9.533951000">
        <ele>182.79000</ele>
        <time>2012-03-08T18:53:04Z</time>
      </trkpt>
      <trkpt lat="51.97886300" lon="9.534073000">
        <ele>181.83000</ele>
        <time>2012-03-08T18:53:08Z</time>
      </trkpt>
      <trkpt lat="51.97881300" lon="9.534206000">
        <ele>180.38000</ele>
        <time>2012-03-08T18:53:12Z</time>
      </trkpt>
      <trkpt lat="51.97870600" lon="9.534490000">
        <ele>180.87000</ele>
        <time>2012-03-08T18:53:20Z</time>
      </trkpt>
      <trkpt lat="51.97868300" lon="9.534532000">
        <ele>179.90000</ele>
        <time>2012-03-08T18:53:22Z</time>
      </trkpt>
      <trkpt lat="51.97862600" lon="9.534592000">
        <ele>178.94000</ele>
        <time>2012-03-08T18:53:25Z</time>
      </trkpt>
      <trkpt lat="51.97845100" lon="9.534770000">
        <ele>178.94000</ele>
        <time>2012-03-08T18:53:33Z</time>
      </trkpt>
      <trkpt lat="51.97838600" lon="9.534849000">
        <ele>177.98000</ele>
        <time>2012-03-08T18:53:36Z</time>
      </trkpt>
      <trkpt lat="51.97833600" lon="9.534864000">
        <ele>177.02000</ele>
        <time>2012-03-08T18:53:38Z</time>
      </trkpt>
      <trkpt lat="51.97820700" lon="9.535119000">
        <ele>177.02000</ele>
        <time>2012-03-08T18:53:46Z</time>
      </trkpt>
      <trkpt lat="51.97817600" lon="9.535158000">
        <ele>177.02000</ele>
        <time>2012-03-08T18:53:48Z</time>
      </trkpt>
      <trkpt lat="51.97807300" lon="9.535283000">
        <ele>177.02000</ele>
        <time>2012-03-08T18:53:53Z</time>
      </trkpt>
      <trkpt lat="51.97800100" lon="9.535415000">
        <ele>178.46000</ele>
        <time>2012-03-08T18:53:57Z</time>
      </trkpt>
      <trkpt lat="51.97783700" lon="9.535586000">
        <ele>177.98000</ele>
        <time>2012-03-08T18:54:05Z</time>
      </trkpt>
      <trkpt lat="51.97773700" lon="9.535725000">
        <ele>178.94000</ele>
        <time>2012-03-08T18:54:10Z</time>
      </trkpt>
      <trkpt lat="51.97758900" lon="9.535988000">
        <ele>178.46000</ele>
        <time>2012-03-08T18:54:19Z</time>
      </trkpt>
      <trkpt lat="51.97753100" lon="9.536122000">
        <ele>176.06000</ele>
        <time>2012-03-08T18:54:23Z</time>
      </trkpt>
      <trkpt lat="51.97737100" lon="9.536330000">
        <ele>173.66000</ele>
        <time>2012-03-08T18:54:31Z</time>
      </trkpt>
      <trkpt lat="51.97726100" lon="9.536668000">
        <ele>170.77000</ele>
        <time>2012-03-08T18:54:41Z</time>
      </trkpt>
      <trkpt lat="51.97724500" lon="9.536750000">
        <ele>167.89000</ele>
        <time>2012-03-08T18:54:43Z</time>
      </trkpt>
      <trkpt lat="51.97724900" lon="9.536809000">
        <ele>165.48000</ele>
        <time>2012-03-08T18:54:44Z</time>
      </trkpt>
      <trkpt lat="51.97725300" lon="9.536957000">
        <ele>164.52000</ele>
        <time>2012-03-08T18:54:48Z</time>
      </trkpt>
      <trkpt lat="51.97723400" lon="9.537268000">
        <ele>164.52000</ele>
        <time>2012-03-08T18:54:56Z</time>
      </trkpt>
      <trkpt lat="51.97722600" lon="9.537490000">
        <ele>164.04000</ele>
        <time>2012-03-08T18:55:01Z</time>
      </trkpt>
      <trkpt lat="51.97717300" lon="9.537758000">
        <ele>164.52000</ele>
        <time>2012-03-08T18:55:08Z</time>
      </trkpt>
      <trkpt lat="51.97714200" lon="9.537819000">
        <ele>163.08000</ele>
        <time>2012-03-08T18:55:10Z</time>
      </trkpt>
      <trkpt lat="51.97713100" lon="9.537852000">
        <ele>163.56000</ele>
        <time>2012-03-08T18:55:11Z</time>
      </trkpt>
      <trkpt lat="51.97694800" lon="9.538248000">
        <ele>162.60000</ele>
        <time>2012-03-08T18:55:23Z</time>
      </trkpt>
      <trkpt lat="51.97683300" lon="9.538337000">
        <ele>162.12000</ele>
        <time>2012-03-08T18:55:28Z</time>
      </trkpt>
      <trkpt lat="51.97660800" lon="9.538409000">
        <ele>162.12000</ele>
        <time>2012-03-08T18:55:38Z</time>
      </trkpt>
      <trkpt lat="51.97635300" lon="9.538538000">
        <ele>161.16000</ele>
        <time>2012-03-08T18:55:48Z</time>
      </trkpt>
      <trkpt lat="51.97632600" lon="9.538581000">
        <ele>160.68000</ele>
        <time>2012-03-08T18:55:50Z</time>
      </trkpt>
      <trkpt lat="51.97630700" lon="9.538610000">
        <ele>159.72000</ele>
        <time>2012-03-08T18:55:51Z</time>
      </trkpt>
      <trkpt lat="51.97628000" lon="9.538651000">
        <ele>160.20000</ele>
        <time>2012-03-08T18:55:52Z</time>
      </trkpt>
      <trkpt lat="51.97623800" lon="9.538802000">
        <ele>158.75000</ele>
        <time>2012-03-08T18:55:56Z</time>
      </trkpt>
      <trkpt lat="51.97623400" lon="9.538890000">
        <ele>158.75000</ele>
        <time>2012-03-08T18:55:59Z</time>
      </trkpt>
      <trkpt lat="51.97627600" lon="9.539172000">
        <ele>156.83000</ele>
        <time>2012-03-08T18:56:06Z</time>
      </trkpt>
      <trkpt lat="51.97631800" lon="9.539407000">
        <ele>155.39000</ele>
        <time>2012-03-08T18:56:12Z</time>
      </trkpt>
      <trkpt lat="51.97623400" lon="9.539749000">
        <ele>151.54000</ele>
        <time>2012-03-08T18:56:21Z</time>
      </trkpt>
      <trkpt lat="51.97623400" lon="9.539759000">
        <ele>155.87000</ele>
        <time>2012-03-08T18:56:21Z</time>
      </trkpt>
      <trkpt lat="51.97621900" lon="9.539789000">
        <ele>154.91000</ele>
        <time>2012-03-08T18:56:22Z</time>
      </trkpt>
      <trkpt lat="51.97617000" lon="9.539895000">
        <ele>154.43000</ele>
        <time>2012-03-08T18:56:25Z</time>
      </trkpt>
      <trkpt lat="51.97601300" lon="9.540294000">
        <ele>152.51000</ele>
        <time>2012-03-08T18:56:37Z</time>
      </trkpt>
      <trkpt lat="51.97595200" lon="9.540431000">
        <ele>152.03000</ele>
        <time>2012-03-08T18:56:41Z</time>
      </trkpt>
      <trkpt lat="51.97588000" lon="9.540549000">
        <ele>149.62000</ele>
        <time>2012-03-08T18:56:45Z</time>
      </trkpt>
      <trkpt lat="51.97587200" lon="9.540574000">
        <ele>150.10000</ele>
        <time>2012-03-08T18:56:46Z</time>
      </trkpt>
      <trkpt lat="51.97576500" lon="9.540923000">
        <ele>147.70000</ele>
        <time>2012-03-08T18:56:56Z</time>
      </trkpt>
      <trkpt lat="51.97567700" lon="9.541243000">
        <ele>146.26000</ele>
        <time>2012-03-08T18:57:04Z</time>
      </trkpt>
      <trkpt lat="51.97562400" lon="9.541467000">
        <ele>146.26000</ele>
        <time>2012-03-08T18:57:10Z</time>
      </trkpt>
      <trkpt lat="51.97554800" lon="9.541814000">
        <ele>144.34000</ele>
        <time>2012-03-08T18:57:19Z</time>
      </trkpt>
      <trkpt lat="51.97552900" lon="9.541900000">
        <ele>143.85000</ele>
        <time>2012-03-08T18:57:21Z</time>
      </trkpt>
      <trkpt lat="51.97550600" lon="9.541963000">
        <ele>143.85000</ele>
        <time>2012-03-08T18:57:23Z</time>
      </trkpt>
      <trkpt lat="51.97546800" lon="9.542156000">
        <ele>143.37000</ele>
        <time>2012-03-08T18:57:28Z</time>
      </trkpt>
      <trkpt lat="51.97540700" lon="9.542363000">
        <ele>143.37000</ele>
        <time>2012-03-08T18:57:34Z</time>
      </trkpt>
      <trkpt lat="51.97535300" lon="9.542608000">
        <ele>142.89000</ele>
        <time>2012-03-08T18:57:40Z</time>
      </trkpt>
      <trkpt lat="51.97528500" lon="9.542850000">
        <ele>140.97000</ele>
        <time>2012-03-08T18:57:47Z</time>
      </trkpt>
      <trkpt lat="51.97526900" lon="9.542868000">
        <ele>139.05000</ele>
        <time>2012-03-08T18:57:48Z</time>
      </trkpt>
      <trkpt lat="51.97522000" lon="9.542895000">
        <ele>140.01000</ele>
        <time>2012-03-08T18:57:50Z</time>
      </trkpt>
      <trkpt lat="51.97519700" lon="9.542949000">
        <ele>140.01000</ele>
        <time>2012-03-08T18:57:51Z</time>
      </trkpt>
      <trkpt lat="51.97519700" lon="9.542977000">
        <ele>141.45000</ele>
        <time>2012-03-08T18:57:52Z</time>
      </trkpt>
      <trkpt lat="51.97521200" lon="9.542949000">
        <ele>140.01000</ele>
        <time>2012-03-08T18:57:53Z</time>
      </trkpt>
      <trkpt lat="51.97517400" lon="9.542906000">
        <ele>140.49000</ele>
        <time>2012-03-08T18:57:55Z</time>
      </trkpt>
      <trkpt lat="51.97515100" lon="9.542943000">
        <ele>140.01000</ele>
        <time>2012-03-08T18:57:56Z</time>
      </trkpt>
      <trkpt lat="51.97512800" lon="9.543001000">
        <ele>139.53000</ele>
        <time>2012-03-08T18:57:58Z</time>
      </trkpt>
      <trkpt lat="51.97512400" lon="9.543007000">
        <ele>139.05000</ele>
        <time>2012-03-08T18:57:58Z</time>
      </trkpt>
      <trkpt lat="51.97512400" lon="9.543008000">
        <ele>139.05000</ele>
        <time>2012-03-08T18:57:58Z</time>
      </trkpt>
      <trkpt lat="51.97512800" lon="9.543009000">
        <ele>141.45000</ele>
        <time>2012-03-08T18:57:58Z</time>
      </trkpt>
      <trkpt lat="51.97512400" lon="9.542997000">
        <ele>142.89000</ele>
        <time>2012-03-08T18:57:59Z</time>
      </trkpt>
      <trkpt lat="51.97510900" lon="9.542990000">
        <ele>142.41000</ele>
        <time>2012-03-08T18:57:59Z</time>
      </trkpt>
      <trkpt lat="51.97509400" lon="9.542987000">
        <ele>142.89000</ele>
        <time>2012-03-08T18:58:00Z</time>
      </trkpt>
      <trkpt lat="51.97509800" lon="9.542977000">
        <ele>141.93000</ele>
        <time>2012-03-08T18:58:00Z</time>
      </trkpt>
      <trkpt lat="51.97508200" lon="9.542994000">
        <ele>140.49000</ele>
        <time>2012-03-08T18:58:01Z</time>
      </trkpt>
      <trkpt lat="51.97508600" lon="9.543109000">
        <ele>140.49000</ele>
        <time>2012-03-08T18:58:04Z</time>
      </trkpt>
      <trkpt lat="51.97512800" lon="9.543075000">
        <ele>131.84000</ele>
        <time>2012-03-08T18:58:06Z</time>
      </trkpt>
      <trkpt lat="51.97512800" lon="9.543096000">
        <ele>146.26000</ele>
        <time>2012-03-08T18:58:06Z</time>
      </trkpt>
      <trkpt lat="51.97512800" lon="9.543100000">
        <ele>141.93000</ele>
        <time>2012-03-08T18:58:06Z</time>
      </trkpt>
      <trkpt lat="51.97512800" lon="9.543115000">
        <ele>138.09000</ele>
        <time>2012-03-08T18:58:06Z</time>
      </trkpt>
      <trkpt lat="51.97512800" lon="9.543123000">
        <ele>135.20000</ele>
        <time>2012-03-08T18:58:07Z</time>
      </trkpt>
      <trkpt lat="51.97512800" lon="9.543130000">
        <ele>141.45000</ele>
        <time>2012-03-08T18:58:07Z</time>
      </trkpt>
      <trkpt lat="51.97512800" lon="9.543139000">
        <ele>141.45000</ele>
        <time>2012-03-08T18:58:07Z</time>
      </trkpt>
      <trkpt lat="51.97512800" lon="9.543154000">
        <ele>140.01000</ele>
        <time>2012-03-08T18:58:07Z</time>
      </trkpt>
      <trkpt lat="51.97515900" lon="9.542895000">
        <ele>136.16000</ele>
        <time>2012-03-08T18:58:14Z</time>
      </trkpt>
      <trkpt lat="51.97517400" lon="9.542911000">
        <ele>140.49000</ele>
        <time>2012-03-08T18:58:15Z</time>
      </trkpt>
      <trkpt lat="51.97515100" lon="9.543069000">
        <ele>139.53000</ele>
        <time>2012-03-08T18:58:19Z</time>
      </trkpt>
      <trkpt lat="51.97513600" lon="9.543131000">
        <ele>140.49000</ele>
        <time>2012-03-08T18:58:20Z</time>
      </trkpt>
      <trkpt lat="51.97516300" lon="9.543055000">
        <ele>139.53000</ele>
        <time>2012-03-08T18:58:22Z</time>
      </trkpt>
      <trkpt lat="51.97517800" lon="9.543055000">
        <ele>138.57000</ele>
        <time>2012-03-08T18:58:23Z</time>
      </trkpt>
      <trkpt lat="51.97518500" lon="9.543051000">
        <ele>140.01000</ele>
        <time>2012-03-08T18:58:23Z</time>
      </trkpt>
      <trkpt lat="51.97518900" lon="9.543042000">
        <ele>140.97000</ele>
        <time>2012-03-08T18:58:24Z</time>
      </trkpt>
      <trkpt lat="51.97515100" lon="9.543090000">
        <ele>140.01000</ele>
        <time>2012-03-08T18:58:26Z</time>
      </trkpt>
      <trkpt lat="51.97514700" lon="9.543078000">
        <ele>140.01000</ele>
        <time>2012-03-08T18:58:26Z</time>
      </trkpt>
      <trkpt lat="51.97515900" lon="9.543090000">
        <ele>139.53000</ele>
        <time>2012-03-08T18:58:26Z</time>
      </trkpt>
      <trkpt lat="51.97514700" lon="9.543161000">
        <ele>139.05000</ele>
        <time>2012-03-08T18:58:28Z</time>
      </trkpt>
      <trkpt lat="51.97515100" lon="9.543167000">
        <ele>139.53000</ele>
        <time>2012-03-08T18:58:29Z</time>
      </trkpt>
      <trkpt lat="51.97515100" lon="9.543171000">
        <ele>139.05000</ele>
        <time>2012-03-08T18:58:29Z</time>
      </trkpt>
      <trkpt lat="51.97515100" lon="9.543177000">
        <ele>138.09000</ele>
        <time>2012-03-08T18:58:29Z</time>
      </trkpt>
      <trkpt lat="51.97516300" lon="9.543208000">
        <ele>139.53000</ele>
        <time>2012-03-08T18:58:30Z</time>
      </trkpt>
      <trkpt lat="51.97514300" lon="9.543209000">
        <ele>138.09000</ele>
        <time>2012-03-08T18:58:30Z</time>
      </trkpt>
      <trkpt lat="51.97515100" lon="9.543139000">
        <ele>140.01000</ele>
        <time>2012-03-08T18:58:32Z</time>
      </trkpt>
      <trkpt lat="51.97515900" lon="9.543055000">
        <ele>140.97000</ele>
        <time>2012-03-08T18:58:34Z</time>
      </trkpt>
      <trkpt lat="51.97514300" lon="9.543041000">
        <ele>141.45000</ele>
        <time>2012-03-08T18:58:35Z</time>
      </trkpt>
      <trkpt lat="51.97514700" lon="9.543046000">
        <ele>141.45000</ele>
        <time>2012-03-08T18:58:35Z</time>
      </trkpt>
      <trkpt lat="51.97513200" lon="9.543045000">
        <ele>141.93000</ele>
        <time>2012-03-08T18:58:36Z</time>
      </trkpt>
      <trkpt lat="51.97519300" lon="9.542967000">
        <ele>142.89000</ele>
        <time>2012-03-08T18:58:39Z</time>
      </trkpt>
      <trkpt lat="51.97519300" lon="9.542955000">
        <ele>140.97000</ele>
        <time>2012-03-08T18:58:39Z</time>
      </trkpt>
      <trkpt lat="51.97519300" lon="9.542959000">
        <ele>141.45000</ele>
        <time>2012-03-08T18:58:39Z</time>
      </trkpt>
      <trkpt lat="51.97518900" lon="9.542969000">
        <ele>141.45000</ele>
        <time>2012-03-08T18:58:40Z</time>
      </trkpt>
      <trkpt lat="51.97520800" lon="9.543023000">
        <ele>141.45000</ele>
        <time>2012-03-08T18:58:41Z</time>
      </trkpt>
      <trkpt lat="51.97517800" lon="9.543188000">
        <ele>139.05000</ele>
        <time>2012-03-08T18:58:45Z</time>
      </trkpt>
      <trkpt lat="51.97515500" lon="9.543287000">
        <ele>139.05000</ele>
        <time>2012-03-08T18:58:48Z</time>
      </trkpt>
      <trkpt lat="51.97514300" lon="9.543312000">
        <ele>139.05000</ele>
        <time>2012-03-08T18:58:49Z</time>
      </trkpt>
      <trkpt lat="51.97518200" lon="9.543381000">
        <ele>138.57000</ele>
        <time>2012-03-08T18:58:51Z</time>
      </trkpt>
      <trkpt lat="51.97520400" lon="9.543460000">
        <ele>136.64000</ele>
        <time>2012-03-08T18:58:53Z</time>
      </trkpt>
      <trkpt lat="51.97523100" lon="9.543550000">
        <ele>134.24000</ele>
        <time>2012-03-08T18:58:56Z</time>
      </trkpt>
      <trkpt lat="51.97529600" lon="9.543715000">
        <ele>131.36000</ele>
        <time>2012-03-08T18:59:01Z</time>
      </trkpt>
      <trkpt lat="51.97539900" lon="9.543955000">
        <ele>128.47000</ele>
        <time>2012-03-08T18:59:08Z</time>
      </trkpt>
      <trkpt lat="51.97546400" lon="9.544048000">
        <ele>126.07000</ele>
        <time>2012-03-08T18:59:11Z</time>
      </trkpt>
      <trkpt lat="51.97557800" lon="9.544266000">
        <ele>123.19000</ele>
        <time>2012-03-08T18:59:18Z</time>
      </trkpt>
      <trkpt lat="51.97577300" lon="9.544529000">
        <ele>120.30000</ele>
        <time>2012-03-08T18:59:28Z</time>
      </trkpt>
      <trkpt lat="51.97581500" lon="9.544578000">
        <ele>119.34000</ele>
        <time>2012-03-08T18:59:30Z</time>
      </trkpt>
      <trkpt lat="51.97593700" lon="9.544695000">
        <ele>118.86000</ele>
        <time>2012-03-08T18:59:36Z</time>
      </trkpt>
      <trkpt lat="51.97603600" lon="9.544921000">
        <ele>115.98000</ele>
        <time>2012-03-08T18:59:43Z</time>
      </trkpt>
      <trkpt lat="51.97607800" lon="9.545102000">
        <ele>114.53000</ele>
        <time>2012-03-08T18:59:48Z</time>
      </trkpt>
      <trkpt lat="51.97609700" lon="9.545140000">
        <ele>114.05000</ele>
        <time>2012-03-08T18:59:49Z</time>
      </trkpt>
      <trkpt lat="51.97614700" lon="9.545199000">
        <ele>112.61000</ele>
        <time>2012-03-08T18:59:51Z</time>
      </trkpt>
      <trkpt lat="51.97624200" lon="9.545377000">
        <ele>110.69000</ele>
        <time>2012-03-08T18:59:57Z</time>
      </trkpt>
      <trkpt lat="51.97640600" lon="9.545469000">
        <ele>109.25000</ele>
        <time>2012-03-08T19:00:04Z</time>
      </trkpt>
      <trkpt lat="51.97652100" lon="9.545523000">
        <ele>108.77000</ele>
        <time>2012-03-08T19:00:09Z</time>
      </trkpt>
      <trkpt lat="51.97665000" lon="9.545630000">
        <ele>106.84000</ele>
        <time>2012-03-08T19:00:15Z</time>
      </trkpt>
      <trkpt lat="51.97666500" lon="9.545710000">
        <ele>105.88000</ele>
        <time>2012-03-08T19:00:17Z</time>
      </trkpt>
      <trkpt lat="51.97673000" lon="9.546022000">
        <ele>102.52000</ele>
        <time>2012-03-08T19:00:25Z</time>
      </trkpt>
      <trkpt lat="51.97673800" lon="9.546041000">
        <ele>103.00000</ele>
        <time>2012-03-08T19:00:26Z</time>
      </trkpt>
      <trkpt lat="51.97678000" lon="9.546114000">
        <ele>102.52000</ele>
        <time>2012-03-08T19:00:28Z</time>
      </trkpt>
      <trkpt lat="51.97689100" lon="9.546214000">
        <ele>99.150000</ele>
        <time>2012-03-08T19:00:33Z</time>
      </trkpt>
      <trkpt lat="51.97723000" lon="9.546387000">
        <ele>92.900000</ele>
        <time>2012-03-08T19:00:47Z</time>
      </trkpt>
      <trkpt lat="51.97728000" lon="9.546495000">
        <ele>91.460000</ele>
        <time>2012-03-08T19:00:51Z</time>
      </trkpt>
      <trkpt lat="51.97734500" lon="9.546842000">
        <ele>90.500000</ele>
        <time>2012-03-08T19:01:00Z</time>
      </trkpt>
      <trkpt lat="51.97731400" lon="9.546893000">
        <ele>89.540000</ele>
        <time>2012-03-08T19:01:01Z</time>
      </trkpt>
      <trkpt lat="51.97716100" lon="9.547345000">
        <ele>89.060000</ele>
        <time>2012-03-08T19:01:14Z</time>
      </trkpt>
      <trkpt lat="51.97711600" lon="9.547467000">
        <ele>89.060000</ele>
        <time>2012-03-08T19:01:18Z</time>
      </trkpt>
      <trkpt lat="51.97708900" lon="9.547555000">
        <ele>89.060000</ele>
        <time>2012-03-08T19:01:20Z</time>
      </trkpt>
      <trkpt lat="51.97697800" lon="9.547731000">
        <ele>88.580000</ele>
        <time>2012-03-08T19:01:26Z</time>
      </trkpt>
      <trkpt lat="51.97694000" lon="9.547803000">
        <ele>88.580000</ele>
        <time>2012-03-08T19:01:29Z</time>
      </trkpt>
      <trkpt lat="51.97691000" lon="9.547882000">
        <ele>89.060000</ele>
        <time>2012-03-08T19:01:31Z</time>
      </trkpt>
      <trkpt lat="51.97683000" lon="9.548071000">
        <ele>89.060000</ele>
        <time>2012-03-08T19:01:37Z</time>
      </trkpt>
      <trkpt lat="51.97678400" lon="9.548199000">
        <ele>89.060000</ele>
        <time>2012-03-08T19:01:40Z</time>
      </trkpt>
      <trkpt lat="51.97671500" lon="9.548334000">
        <ele>88.580000</ele>
        <time>2012-03-08T19:01:44Z</time>
      </trkpt>
      <trkpt lat="51.97670400" lon="9.548371000">
        <ele>89.060000</ele>
        <time>2012-03-08T19:01:45Z</time>
      </trkpt>
      <trkpt lat="51.97662700" lon="9.548541000">
        <ele>88.580000</ele>
        <time>2012-03-08T19:01:51Z</time>
      </trkpt>
      <trkpt lat="51.97654000" lon="9.548782000">
        <ele>88.580000</ele>
        <time>2012-03-08T19:01:58Z</time>
      </trkpt>
      <trkpt lat="51.97654000" lon="9.548809000">
        <ele>89.060000</ele>
        <time>2012-03-08T19:01:58Z</time>
      </trkpt>
      <trkpt lat="51.97665400" lon="9.549025000">
        <ele>87.620000</ele>
        <time>2012-03-08T19:02:05Z</time>
      </trkpt>
      <trkpt lat="51.97672300" lon="9.549067000">
        <ele>88.100000</ele>
        <time>2012-03-08T19:02:08Z</time>
      </trkpt>
      <trkpt lat="51.97673000" lon="9.549061000">
        <ele>90.020000</ele>
        <time>2012-03-08T19:02:09Z</time>
      </trkpt>
    </trkseg>
  </trk>
</gpx>

